<?xml version="1.0" encoding="UTF-8" standalone="no" ?>
<gpx xmlns="http://www.topografix.com/GPX/1/1" xmlns:xsi="http://www.w3.org/2001/XMLSchema-instance" xsi:schemaLocation="http://www.topografix.com/GPX/1/1 http://www.topografix.com/GPX/1/1/gpx.xsd" version="1.1" creator="VisuGPX - https://www.visugpx.com">
  <metadata>
    <name>Suchet en Famille</name>
    <desc><![CDATA[Super sortie en famille en Suisse au sommet du Suchet. Belle vue sur le Jura et le Lac de Neuchâtel !
Merci à Virginie, Olivier et les enfants de nous avoir fait découvrir ce coin !
]]></desc>
  </metadata>
  <trk>
    <name><![CDATA[Suchet]]></name>
    <desc><![CDATA[6 mai 2018 12:05 pm]]></desc>
    <trkseg>
      <trkpt lat="46.78795" lon="6.48205">
        <ele>1269.397</ele>
        <time>2018-05-06T10:05:02.337Z</time>
      </trkpt>
      <trkpt lat="46.78795" lon="6.48205">
        <ele>1268.993</ele>
        <time>2018-05-06T10:05:02.437Z</time>
      </trkpt>
      <trkpt lat="46.7879" lon="6.48204">
        <ele>1268.015</ele>
        <time>2018-05-06T10:05:17.007Z</time>
      </trkpt>
      <trkpt lat="46.7879" lon="6.48204">
        <ele>1267.66</ele>
        <time>2018-05-06T10:05:23.004Z</time>
      </trkpt>
      <trkpt lat="46.7879" lon="6.48204">
        <ele>1267.113</ele>
        <time>2018-05-06T10:05:52.405Z</time>
      </trkpt>
      <trkpt lat="46.78782" lon="6.48194">
        <ele>1266.182</ele>
        <time>2018-05-06T10:06:06.418Z</time>
      </trkpt>
      <trkpt lat="46.78775" lon="6.48184">
        <ele>1266.47</ele>
        <time>2018-05-06T10:06:14.487Z</time>
      </trkpt>
      <trkpt lat="46.78767" lon="6.48177">
        <ele>1267.493</ele>
        <time>2018-05-06T10:06:22.995Z</time>
      </trkpt>
      <trkpt lat="46.78767" lon="6.48177">
        <ele>1268.584</ele>
        <time>2018-05-06T10:06:26.994Z</time>
      </trkpt>
      <trkpt lat="46.78767" lon="6.48177">
        <ele>1268.867</ele>
        <time>2018-05-06T10:06:36.409Z</time>
      </trkpt>
      <trkpt lat="46.7876" lon="6.48168">
        <ele>1267.498</ele>
        <time>2018-05-06T10:06:53.976Z</time>
      </trkpt>
      <trkpt lat="46.78752" lon="6.48162">
        <ele>1267.41</ele>
        <time>2018-05-06T10:07:03.668Z</time>
      </trkpt>
      <trkpt lat="46.78746" lon="6.48152">
        <ele>1268.191</ele>
        <time>2018-05-06T10:07:13.000Z</time>
      </trkpt>
      <trkpt lat="46.78738" lon="6.48144">
        <ele>1269.212</ele>
        <time>2018-05-06T10:07:23.107Z</time>
      </trkpt>
      <trkpt lat="46.78732" lon="6.48134">
        <ele>1269.956</ele>
        <time>2018-05-06T10:07:32.962Z</time>
      </trkpt>
      <trkpt lat="46.78725" lon="6.48125">
        <ele>1270.498</ele>
        <time>2018-05-06T10:07:43.491Z</time>
      </trkpt>
      <trkpt lat="46.78717" lon="6.48116">
        <ele>1271.019</ele>
        <time>2018-05-06T10:07:53.991Z</time>
      </trkpt>
      <trkpt lat="46.78717" lon="6.48116">
        <ele>1271.543</ele>
        <time>2018-05-06T10:08:06.990Z</time>
      </trkpt>
      <trkpt lat="46.78717" lon="6.48116">
        <ele>1271.646</ele>
        <time>2018-05-06T10:09:10.639Z</time>
      </trkpt>
      <trkpt lat="46.78703" lon="6.48094">
        <ele>1271.098</ele>
        <time>2018-05-06T10:11:41.857Z</time>
      </trkpt>
      <trkpt lat="46.78696" lon="6.48085">
        <ele>1270.837</ele>
        <time>2018-05-06T10:11:51.582Z</time>
      </trkpt>
      <trkpt lat="46.78689" lon="6.48076">
        <ele>1271.67</ele>
        <time>2018-05-06T10:12:01.697Z</time>
      </trkpt>
      <trkpt lat="46.78683" lon="6.48066">
        <ele>1273.012</ele>
        <time>2018-05-06T10:12:12.857Z</time>
      </trkpt>
      <trkpt lat="46.78679" lon="6.48053">
        <ele>1274.105</ele>
        <time>2018-05-06T10:12:23.239Z</time>
      </trkpt>
      <trkpt lat="46.78672" lon="6.48045">
        <ele>1275.199</ele>
        <time>2018-05-06T10:12:32.512Z</time>
      </trkpt>
      <trkpt lat="46.78665" lon="6.48036">
        <ele>1275.554</ele>
        <time>2018-05-06T10:12:42.018Z</time>
      </trkpt>
      <trkpt lat="46.78658" lon="6.48026">
        <ele>1276.071</ele>
        <time>2018-05-06T10:12:52.071Z</time>
      </trkpt>
      <trkpt lat="46.78652" lon="6.48015">
        <ele>1276.732</ele>
        <time>2018-05-06T10:13:02.335Z</time>
      </trkpt>
      <trkpt lat="46.78646" lon="6.48004">
        <ele>1277.463</ele>
        <time>2018-05-06T10:13:12.737Z</time>
      </trkpt>
      <trkpt lat="46.7864" lon="6.47994">
        <ele>1278.223</ele>
        <time>2018-05-06T10:13:22.669Z</time>
      </trkpt>
      <trkpt lat="46.78634" lon="6.47984">
        <ele>1279.015</ele>
        <time>2018-05-06T10:13:33.548Z</time>
      </trkpt>
      <trkpt lat="46.78629" lon="6.47971">
        <ele>1279.77</ele>
        <time>2018-05-06T10:13:44.512Z</time>
      </trkpt>
      <trkpt lat="46.78624" lon="6.4796">
        <ele>1280.454</ele>
        <time>2018-05-06T10:13:55.250Z</time>
      </trkpt>
      <trkpt lat="46.78619" lon="6.47948">
        <ele>1281.179</ele>
        <time>2018-05-06T10:14:07.800Z</time>
      </trkpt>
      <trkpt lat="46.78614" lon="6.47936">
        <ele>1282.389</ele>
        <time>2018-05-06T10:14:20.712Z</time>
      </trkpt>
      <trkpt lat="46.78609" lon="6.47925">
        <ele>1282.927</ele>
        <time>2018-05-06T10:14:32.255Z</time>
      </trkpt>
      <trkpt lat="46.78604" lon="6.47914">
        <ele>1283.559</ele>
        <time>2018-05-06T10:14:42.609Z</time>
      </trkpt>
      <trkpt lat="46.78598" lon="6.47903">
        <ele>1284.219</ele>
        <time>2018-05-06T10:14:53.994Z</time>
      </trkpt>
      <trkpt lat="46.78598" lon="6.47903">
        <ele>1284.833</ele>
        <time>2018-05-06T10:14:57.994Z</time>
      </trkpt>
      <trkpt lat="46.78598" lon="6.47903">
        <ele>1284.972</ele>
        <time>2018-05-06T10:16:50.317Z</time>
      </trkpt>
      <trkpt lat="46.78594" lon="6.4789">
        <ele>1283.69</ele>
        <time>2018-05-06T10:17:10.315Z</time>
      </trkpt>
      <trkpt lat="46.78587" lon="6.47879">
        <ele>1283.902</ele>
        <time>2018-05-06T10:17:21.827Z</time>
      </trkpt>
      <trkpt lat="46.78582" lon="6.47867">
        <ele>1285.492</ele>
        <time>2018-05-06T10:17:33.273Z</time>
      </trkpt>
      <trkpt lat="46.78578" lon="6.47855">
        <ele>1287.561</ele>
        <time>2018-05-06T10:17:44.902Z</time>
      </trkpt>
      <trkpt lat="46.78572" lon="6.47843">
        <ele>1289.096</ele>
        <time>2018-05-06T10:17:57.249Z</time>
      </trkpt>
      <trkpt lat="46.78567" lon="6.47832">
        <ele>1290.037</ele>
        <time>2018-05-06T10:18:08.915Z</time>
      </trkpt>
      <trkpt lat="46.78564" lon="6.47819">
        <ele>1290.642</ele>
        <time>2018-05-06T10:18:21.099Z</time>
      </trkpt>
      <trkpt lat="46.7856" lon="6.47807">
        <ele>1291.207</ele>
        <time>2018-05-06T10:18:32.985Z</time>
      </trkpt>
      <trkpt lat="46.7856" lon="6.47807">
        <ele>1291.794</ele>
        <time>2018-05-06T10:18:41.985Z</time>
      </trkpt>
      <trkpt lat="46.7856" lon="6.47807">
        <ele>1291.938</ele>
        <time>2018-05-06T10:18:48.639Z</time>
      </trkpt>
      <trkpt lat="46.78555" lon="6.47796">
        <ele>1291.38</ele>
        <time>2018-05-06T10:18:59.984Z</time>
      </trkpt>
      <trkpt lat="46.78555" lon="6.47796">
        <ele>1290.65</ele>
        <time>2018-05-06T10:19:08.984Z</time>
      </trkpt>
      <trkpt lat="46.78555" lon="6.47796">
        <ele>1290.202</ele>
        <time>2018-05-06T10:19:41.664Z</time>
      </trkpt>
      <trkpt lat="46.78555" lon="6.47796">
        <ele>1289.498</ele>
        <time>2018-05-06T10:19:55.998Z</time>
      </trkpt>
      <trkpt lat="46.78555" lon="6.47796">
        <ele>1289.107</ele>
        <time>2018-05-06T10:25:12.909Z</time>
      </trkpt>
      <trkpt lat="46.78553" lon="6.47782">
        <ele>1288.244</ele>
        <time>2018-05-06T10:25:49.985Z</time>
      </trkpt>
      <trkpt lat="46.78553" lon="6.47782">
        <ele>1288.001</ele>
        <time>2018-05-06T10:25:59.984Z</time>
      </trkpt>
      <trkpt lat="46.78553" lon="6.47782">
        <ele>1287.766</ele>
        <time>2018-05-06T10:26:12.537Z</time>
      </trkpt>
      <trkpt lat="46.78546" lon="6.47757">
        <ele>1287.337</ele>
        <time>2018-05-06T10:26:39.091Z</time>
      </trkpt>
      <trkpt lat="46.78541" lon="6.47744">
        <ele>1287.946</ele>
        <time>2018-05-06T10:26:46.996Z</time>
      </trkpt>
      <trkpt lat="46.78541" lon="6.47744">
        <ele>1290.447</ele>
        <time>2018-05-06T10:26:57.997Z</time>
      </trkpt>
      <trkpt lat="46.78541" lon="6.47744">
        <ele>1292.459</ele>
        <time>2018-05-06T10:28:16.598Z</time>
      </trkpt>
      <trkpt lat="46.78534" lon="6.47728">
        <ele>1291.901</ele>
        <time>2018-05-06T10:28:38.006Z</time>
      </trkpt>
      <trkpt lat="46.78528" lon="6.47718">
        <ele>1291.119</ele>
        <time>2018-05-06T10:28:47.312Z</time>
      </trkpt>
      <trkpt lat="46.78522" lon="6.47707">
        <ele>1292.478</ele>
        <time>2018-05-06T10:28:56.042Z</time>
      </trkpt>
      <trkpt lat="46.78515" lon="6.47697">
        <ele>1294.763</ele>
        <time>2018-05-06T10:29:04.593Z</time>
      </trkpt>
      <trkpt lat="46.7851" lon="6.47686">
        <ele>1296.195</ele>
        <time>2018-05-06T10:29:13.355Z</time>
      </trkpt>
      <trkpt lat="46.78505" lon="6.47674">
        <ele>1296.736</ele>
        <time>2018-05-06T10:29:21.743Z</time>
      </trkpt>
      <trkpt lat="46.78499" lon="6.47664">
        <ele>1296.89</ele>
        <time>2018-05-06T10:29:30.246Z</time>
      </trkpt>
      <trkpt lat="46.78493" lon="6.47653">
        <ele>1297.016</ele>
        <time>2018-05-06T10:29:38.451Z</time>
      </trkpt>
      <trkpt lat="46.78487" lon="6.47641">
        <ele>1297.249</ele>
        <time>2018-05-06T10:29:47.507Z</time>
      </trkpt>
      <trkpt lat="46.78481" lon="6.47632">
        <ele>1297.641</ele>
        <time>2018-05-06T10:29:55.992Z</time>
      </trkpt>
      <trkpt lat="46.78481" lon="6.47632">
        <ele>1298.103</ele>
        <time>2018-05-06T10:30:04.992Z</time>
      </trkpt>
      <trkpt lat="46.78481" lon="6.47632">
        <ele>1298.173</ele>
        <time>2018-05-06T10:33:08.285Z</time>
      </trkpt>
      <trkpt lat="46.78466" lon="6.47609">
        <ele>1297.617</ele>
        <time>2018-05-06T10:33:31.984Z</time>
      </trkpt>
      <trkpt lat="46.78466" lon="6.47609">
        <ele>1296.922</ele>
        <time>2018-05-06T10:33:33.984Z</time>
      </trkpt>
      <trkpt lat="46.78466" lon="6.47609">
        <ele>1296.49</ele>
        <time>2018-05-06T10:33:36.848Z</time>
      </trkpt>
      <trkpt lat="46.78466" lon="6.47609">
        <ele>1295.76</ele>
        <time>2018-05-06T10:33:50.994Z</time>
      </trkpt>
      <trkpt lat="46.78466" lon="6.47609">
        <ele>1295.367</ele>
        <time>2018-05-06T10:33:51.094Z</time>
      </trkpt>
      <trkpt lat="46.78456" lon="6.47602">
        <ele>1294.981</ele>
        <time>2018-05-06T10:34:11.043Z</time>
      </trkpt>
      <trkpt lat="46.78447" lon="6.476">
        <ele>1295.677</ele>
        <time>2018-05-06T10:34:22.841Z</time>
      </trkpt>
      <trkpt lat="46.78438" lon="6.476">
        <ele>1298.263</ele>
        <time>2018-05-06T10:34:31.606Z</time>
      </trkpt>
      <trkpt lat="46.78429" lon="6.47595">
        <ele>1301.394</ele>
        <time>2018-05-06T10:34:39.998Z</time>
      </trkpt>
      <trkpt lat="46.78429" lon="6.47595">
        <ele>1303.427</ele>
        <time>2018-05-06T10:34:43.998Z</time>
      </trkpt>
      <trkpt lat="46.78429" lon="6.47595">
        <ele>1303.955</ele>
        <time>2018-05-06T10:35:19.358Z</time>
      </trkpt>
      <trkpt lat="46.78421" lon="6.47583">
        <ele>1302.372</ele>
        <time>2018-05-06T10:35:39.845Z</time>
      </trkpt>
      <trkpt lat="46.78415" lon="6.47572">
        <ele>1302.307</ele>
        <time>2018-05-06T10:35:50.798Z</time>
      </trkpt>
      <trkpt lat="46.7841" lon="6.47561">
        <ele>1303.464</ele>
        <time>2018-05-06T10:36:01.819Z</time>
      </trkpt>
      <trkpt lat="46.78403" lon="6.47551">
        <ele>1305.196</ele>
        <time>2018-05-06T10:36:13.997Z</time>
      </trkpt>
      <trkpt lat="46.78398" lon="6.4754">
        <ele>1306.711</ele>
        <time>2018-05-06T10:36:26.111Z</time>
      </trkpt>
      <trkpt lat="46.78393" lon="6.47527">
        <ele>1307.924</ele>
        <time>2018-05-06T10:36:35.892Z</time>
      </trkpt>
      <trkpt lat="46.78386" lon="6.47517">
        <ele>1308.95</ele>
        <time>2018-05-06T10:36:44.350Z</time>
      </trkpt>
      <trkpt lat="46.7838" lon="6.47506">
        <ele>1309.837</ele>
        <time>2018-05-06T10:36:54.394Z</time>
      </trkpt>
      <trkpt lat="46.78374" lon="6.47497">
        <ele>1310.706</ele>
        <time>2018-05-06T10:37:05.993Z</time>
      </trkpt>
      <trkpt lat="46.78374" lon="6.47497">
        <ele>1311.554</ele>
        <time>2018-05-06T10:37:19.992Z</time>
      </trkpt>
      <trkpt lat="46.78374" lon="6.47497">
        <ele>1311.82</ele>
        <time>2018-05-06T10:37:49.502Z</time>
      </trkpt>
      <trkpt lat="46.78366" lon="6.47481">
        <ele>1311.241</ele>
        <time>2018-05-06T10:38:10.469Z</time>
      </trkpt>
      <trkpt lat="46.78361" lon="6.47471">
        <ele>1311.101</ele>
        <time>2018-05-06T10:38:19.753Z</time>
      </trkpt>
      <trkpt lat="46.78354" lon="6.4746">
        <ele>1312.564</ele>
        <time>2018-05-06T10:38:29.916Z</time>
      </trkpt>
      <trkpt lat="46.78348" lon="6.47449">
        <ele>1314.879</ele>
        <time>2018-05-06T10:38:39.989Z</time>
      </trkpt>
      <trkpt lat="46.78348" lon="6.47449">
        <ele>1316.724</ele>
        <time>2018-05-06T10:38:45.989Z</time>
      </trkpt>
      <trkpt lat="46.78348" lon="6.47449">
        <ele>1317.327</ele>
        <time>2018-05-06T10:40:34.865Z</time>
      </trkpt>
      <trkpt lat="46.78345" lon="6.47428">
        <ele>1316.68</ele>
        <time>2018-05-06T10:42:14.270Z</time>
      </trkpt>
      <trkpt lat="46.78339" lon="6.47417">
        <ele>1315.725</ele>
        <time>2018-05-06T10:42:24.079Z</time>
      </trkpt>
      <trkpt lat="46.78336" lon="6.47404">
        <ele>1317.196</ele>
        <time>2018-05-06T10:42:32.417Z</time>
      </trkpt>
      <trkpt lat="46.78332" lon="6.47391">
        <ele>1319.198</ele>
        <time>2018-05-06T10:42:40.923Z</time>
      </trkpt>
      <trkpt lat="46.78329" lon="6.47379">
        <ele>1320.679</ele>
        <time>2018-05-06T10:42:49.411Z</time>
      </trkpt>
      <trkpt lat="46.78322" lon="6.4737">
        <ele>1321.997</ele>
        <time>2018-05-06T10:42:57.995Z</time>
      </trkpt>
      <trkpt lat="46.78322" lon="6.4737">
        <ele>1322.037</ele>
        <time>2018-05-06T10:43:04.995Z</time>
      </trkpt>
      <trkpt lat="46.78322" lon="6.4737">
        <ele>1321.516</ele>
        <time>2018-05-06T10:43:06.213Z</time>
      </trkpt>
      <trkpt lat="46.7832" lon="6.47354">
        <ele>1320.829</ele>
        <time>2018-05-06T10:43:26.970Z</time>
      </trkpt>
      <trkpt lat="46.78314" lon="6.47343">
        <ele>1320.967</ele>
        <time>2018-05-06T10:43:36.552Z</time>
      </trkpt>
      <trkpt lat="46.7831" lon="6.47331">
        <ele>1322.262</ele>
        <time>2018-05-06T10:43:45.608Z</time>
      </trkpt>
      <trkpt lat="46.78302" lon="6.47324">
        <ele>1323.989</ele>
        <time>2018-05-06T10:43:53.931Z</time>
      </trkpt>
      <trkpt lat="46.78294" lon="6.47317">
        <ele>1325.336</ele>
        <time>2018-05-06T10:44:02.355Z</time>
      </trkpt>
      <trkpt lat="46.78288" lon="6.47306">
        <ele>1326.199</ele>
        <time>2018-05-06T10:44:11.057Z</time>
      </trkpt>
      <trkpt lat="46.7828" lon="6.47298">
        <ele>1326.782</ele>
        <time>2018-05-06T10:44:20.469Z</time>
      </trkpt>
      <trkpt lat="46.78272" lon="6.47289">
        <ele>1327.394</ele>
        <time>2018-05-06T10:44:30.370Z</time>
      </trkpt>
      <trkpt lat="46.78264" lon="6.47283">
        <ele>1328.126</ele>
        <time>2018-05-06T10:44:39.220Z</time>
      </trkpt>
      <trkpt lat="46.78257" lon="6.47273">
        <ele>1328.935</ele>
        <time>2018-05-06T10:44:48.515Z</time>
      </trkpt>
      <trkpt lat="46.78251" lon="6.47263">
        <ele>1329.795</ele>
        <time>2018-05-06T10:44:57.991Z</time>
      </trkpt>
      <trkpt lat="46.78251" lon="6.47263">
        <ele>1330.563</ele>
        <time>2018-05-06T10:45:09.990Z</time>
      </trkpt>
      <trkpt lat="46.78251" lon="6.47263">
        <ele>1330.734</ele>
        <time>2018-05-06T10:45:32.049Z</time>
      </trkpt>
      <trkpt lat="46.7824" lon="6.47245">
        <ele>1330.145</ele>
        <time>2018-05-06T10:46:49.987Z</time>
      </trkpt>
      <trkpt lat="46.7824" lon="6.47245">
        <ele>1329.384</ele>
        <time>2018-05-06T10:46:51.987Z</time>
      </trkpt>
      <trkpt lat="46.7824" lon="6.47245">
        <ele>1328.922</ele>
        <time>2018-05-06T10:47:10.746Z</time>
      </trkpt>
      <trkpt lat="46.78232" lon="6.47238">
        <ele>1328.684</ele>
        <time>2018-05-06T10:47:27.069Z</time>
      </trkpt>
      <trkpt lat="46.78223" lon="6.47233">
        <ele>1329.449</ele>
        <time>2018-05-06T10:47:36.302Z</time>
      </trkpt>
      <trkpt lat="46.78215" lon="6.47224">
        <ele>1331.784</ele>
        <time>2018-05-06T10:47:46.223Z</time>
      </trkpt>
      <trkpt lat="46.78207" lon="6.47217">
        <ele>1334.382</ele>
        <time>2018-05-06T10:47:55.231Z</time>
      </trkpt>
      <trkpt lat="46.78198" lon="6.4721">
        <ele>1335.851</ele>
        <time>2018-05-06T10:48:02.989Z</time>
      </trkpt>
      <trkpt lat="46.78198" lon="6.4721">
        <ele>1336.298</ele>
        <time>2018-05-06T10:48:07.992Z</time>
      </trkpt>
      <trkpt lat="46.78198" lon="6.4721">
        <ele>1336.074</ele>
        <time>2018-05-06T10:48:21.471Z</time>
      </trkpt>
      <trkpt lat="46.78208" lon="6.47212">
        <ele>1334.923</ele>
        <time>2018-05-06T10:48:41.051Z</time>
      </trkpt>
      <trkpt lat="46.78216" lon="6.47219">
        <ele>1334.802</ele>
        <time>2018-05-06T10:48:48.754Z</time>
      </trkpt>
      <trkpt lat="46.78225" lon="6.47223">
        <ele>1334.775</ele>
        <time>2018-05-06T10:48:54.998Z</time>
      </trkpt>
      <trkpt lat="46.78225" lon="6.47223">
        <ele>1334.567</ele>
        <time>2018-05-06T10:49:14.998Z</time>
      </trkpt>
      <trkpt lat="46.78225" lon="6.47223">
        <ele>1334.142</ele>
        <time>2018-05-06T10:49:15.098Z</time>
      </trkpt>
      <trkpt lat="46.78223" lon="6.4719">
        <ele>1333.544</ele>
        <time>2018-05-06T10:50:22.407Z</time>
      </trkpt>
      <trkpt lat="46.7822" lon="6.47178">
        <ele>1335.017</ele>
        <time>2018-05-06T10:50:34.995Z</time>
      </trkpt>
      <trkpt lat="46.7822" lon="6.47178">
        <ele>1339.642</ele>
        <time>2018-05-06T10:50:43.994Z</time>
      </trkpt>
      <trkpt lat="46.7822" lon="6.47178">
        <ele>1343.372</ele>
        <time>2018-05-06T10:50:44.094Z</time>
      </trkpt>
      <trkpt lat="46.78214" lon="6.47158">
        <ele>1342.759</ele>
        <time>2018-05-06T10:51:07.993Z</time>
      </trkpt>
      <trkpt lat="46.78214" lon="6.47158">
        <ele>1340.533</ele>
        <time>2018-05-06T10:51:17.993Z</time>
      </trkpt>
      <trkpt lat="46.78214" lon="6.47158">
        <ele>1339.831</ele>
        <time>2018-05-06T10:51:18.093Z</time>
      </trkpt>
      <trkpt lat="46.78215" lon="6.47135">
        <ele>1340.368</ele>
        <time>2018-05-06T10:51:45.992Z</time>
      </trkpt>
      <trkpt lat="46.78215" lon="6.47135">
        <ele>1340.665</ele>
        <time>2018-05-06T10:51:55.991Z</time>
      </trkpt>
      <trkpt lat="46.78215" lon="6.47135">
        <ele>1340.183</ele>
        <time>2018-05-06T10:51:59.304Z</time>
      </trkpt>
      <trkpt lat="46.78204" lon="6.47106">
        <ele>1339.462</ele>
        <time>2018-05-06T10:52:33.990Z</time>
      </trkpt>
      <trkpt lat="46.78204" lon="6.47106">
        <ele>1339.075</ele>
        <time>2018-05-06T10:52:41.990Z</time>
      </trkpt>
      <trkpt lat="46.78204" lon="6.47106">
        <ele>1338.824</ele>
        <time>2018-05-06T10:52:42.090Z</time>
      </trkpt>
      <trkpt lat="46.782" lon="6.47093">
        <ele>1337.859</ele>
        <time>2018-05-06T10:52:53.989Z</time>
      </trkpt>
      <trkpt lat="46.782" lon="6.47093">
        <ele>1337.537</ele>
        <time>2018-05-06T10:53:06.989Z</time>
      </trkpt>
      <trkpt lat="46.782" lon="6.47093">
        <ele>1337.276</ele>
        <time>2018-05-06T11:47:39.853Z</time>
      </trkpt>
      <trkpt lat="46.78191" lon="6.47083">
        <ele>1336.86</ele>
        <time>2018-05-06T11:47:57.250Z</time>
      </trkpt>
      <trkpt lat="46.78182" lon="6.47082">
        <ele>1341.506</ele>
        <time>2018-05-06T11:48:06.104Z</time>
      </trkpt>
      <trkpt lat="46.78172" lon="6.47081">
        <ele>1354.478</ele>
        <time>2018-05-06T11:48:14.271Z</time>
      </trkpt>
      <trkpt lat="46.78162" lon="6.4708">
        <ele>1367.871</ele>
        <time>2018-05-06T11:48:21.994Z</time>
      </trkpt>
      <trkpt lat="46.78162" lon="6.4708">
        <ele>1373.854</ele>
        <time>2018-05-06T11:48:33.994Z</time>
      </trkpt>
      <trkpt lat="46.78162" lon="6.4708">
        <ele>1374.028</ele>
        <time>2018-05-06T11:48:34.322Z</time>
      </trkpt>
      <trkpt lat="46.78153" lon="6.47089">
        <ele>1371.857</ele>
        <time>2018-05-06T11:48:45.993Z</time>
      </trkpt>
      <trkpt lat="46.78153" lon="6.47089">
        <ele>1369.821</ele>
        <time>2018-05-06T11:48:56.993Z</time>
      </trkpt>
      <trkpt lat="46.78153" lon="6.47089">
        <ele>1368.871</ele>
        <time>2018-05-06T11:48:57.093Z</time>
      </trkpt>
      <trkpt lat="46.78144" lon="6.47075">
        <ele>1368.548</ele>
        <time>2018-05-06T11:49:11.741Z</time>
      </trkpt>
      <trkpt lat="46.78137" lon="6.47066">
        <ele>1368.141</ele>
        <time>2018-05-06T11:49:17.992Z</time>
      </trkpt>
      <trkpt lat="46.78137" lon="6.47066">
        <ele>1367.563</ele>
        <time>2018-05-06T11:49:24.992Z</time>
      </trkpt>
      <trkpt lat="46.78137" lon="6.47066">
        <ele>1366.874</ele>
        <time>2018-05-06T11:49:25.092Z</time>
      </trkpt>
      <trkpt lat="46.78129" lon="6.47055">
        <ele>1366.301</ele>
        <time>2018-05-06T11:49:38.449Z</time>
      </trkpt>
      <trkpt lat="46.78122" lon="6.47046">
        <ele>1365.879</ele>
        <time>2018-05-06T11:49:45.981Z</time>
      </trkpt>
      <trkpt lat="46.78113" lon="6.47039">
        <ele>1365.507</ele>
        <time>2018-05-06T11:49:53.991Z</time>
      </trkpt>
      <trkpt lat="46.78113" lon="6.47039">
        <ele>1365.184</ele>
        <time>2018-05-06T11:50:11.990Z</time>
      </trkpt>
      <trkpt lat="46.78113" lon="6.47039">
        <ele>1364.845</ele>
        <time>2018-05-06T11:50:29.934Z</time>
      </trkpt>
      <trkpt lat="46.78105" lon="6.47027">
        <ele>1364.404</ele>
        <time>2018-05-06T11:50:51.139Z</time>
      </trkpt>
      <trkpt lat="46.78098" lon="6.47018">
        <ele>1364.391</ele>
        <time>2018-05-06T11:51:01.036Z</time>
      </trkpt>
      <trkpt lat="46.78091" lon="6.47007">
        <ele>1365.176</ele>
        <time>2018-05-06T11:51:10.475Z</time>
      </trkpt>
      <trkpt lat="46.78083" lon="6.47">
        <ele>1365.935</ele>
        <time>2018-05-06T11:51:18.856Z</time>
      </trkpt>
      <trkpt lat="46.78075" lon="6.46991">
        <ele>1365.828</ele>
        <time>2018-05-06T11:51:27.390Z</time>
      </trkpt>
      <trkpt lat="46.78067" lon="6.46983">
        <ele>1365.096</ele>
        <time>2018-05-06T11:51:35.461Z</time>
      </trkpt>
      <trkpt lat="46.7806" lon="6.46976">
        <ele>1364.249</ele>
        <time>2018-05-06T11:51:43.446Z</time>
      </trkpt>
      <trkpt lat="46.78052" lon="6.46968">
        <ele>1363.449</ele>
        <time>2018-05-06T11:51:51.823Z</time>
      </trkpt>
      <trkpt lat="46.78044" lon="6.46961">
        <ele>1362.686</ele>
        <time>2018-05-06T11:52:00.178Z</time>
      </trkpt>
      <trkpt lat="46.78036" lon="6.46953">
        <ele>1361.901</ele>
        <time>2018-05-06T11:52:08.210Z</time>
      </trkpt>
      <trkpt lat="46.78028" lon="6.46946">
        <ele>1361.098</ele>
        <time>2018-05-06T11:52:16.426Z</time>
      </trkpt>
      <trkpt lat="46.78019" lon="6.46941">
        <ele>1360.283</ele>
        <time>2018-05-06T11:52:24.957Z</time>
      </trkpt>
      <trkpt lat="46.7801" lon="6.46936">
        <ele>1359.373</ele>
        <time>2018-05-06T11:52:34.114Z</time>
      </trkpt>
      <trkpt lat="46.78001" lon="6.46942">
        <ele>1358.265</ele>
        <time>2018-05-06T11:52:44.927Z</time>
      </trkpt>
      <trkpt lat="46.77999" lon="6.46955">
        <ele>1357.066</ele>
        <time>2018-05-06T11:52:56.214Z</time>
      </trkpt>
      <trkpt lat="46.77991" lon="6.46963">
        <ele>1355.943</ele>
        <time>2018-05-06T11:53:05.997Z</time>
      </trkpt>
      <trkpt lat="46.77991" lon="6.46963">
        <ele>1355.021</ele>
        <time>2018-05-06T11:53:12.998Z</time>
      </trkpt>
      <trkpt lat="46.77991" lon="6.46963">
        <ele>1354.414</ele>
        <time>2018-05-06T11:54:23.986Z</time>
      </trkpt>
      <trkpt lat="46.77974" lon="6.46954">
        <ele>1354.132</ele>
        <time>2018-05-06T11:55:01.702Z</time>
      </trkpt>
      <trkpt lat="46.77965" lon="6.46948">
        <ele>1353.962</ele>
        <time>2018-05-06T11:55:12.251Z</time>
      </trkpt>
      <trkpt lat="46.77957" lon="6.46941">
        <ele>1353.794</ele>
        <time>2018-05-06T11:55:22.165Z</time>
      </trkpt>
      <trkpt lat="46.77949" lon="6.46935">
        <ele>1353.614</ele>
        <time>2018-05-06T11:55:31.994Z</time>
      </trkpt>
      <trkpt lat="46.77949" lon="6.46935">
        <ele>1353.407</ele>
        <time>2018-05-06T11:55:39.994Z</time>
      </trkpt>
      <trkpt lat="46.77949" lon="6.46935">
        <ele>1353.071</ele>
        <time>2018-05-06T11:56:26.627Z</time>
      </trkpt>
      <trkpt lat="46.7794" lon="6.46928">
        <ele>1352.585</ele>
        <time>2018-05-06T11:56:44.622Z</time>
      </trkpt>
      <trkpt lat="46.77932" lon="6.46921">
        <ele>1352.226</ele>
        <time>2018-05-06T11:56:54.500Z</time>
      </trkpt>
      <trkpt lat="46.77925" lon="6.46913">
        <ele>1352.208</ele>
        <time>2018-05-06T11:57:02.991Z</time>
      </trkpt>
      <trkpt lat="46.77925" lon="6.46913">
        <ele>1352.329</ele>
        <time>2018-05-06T11:57:16.990Z</time>
      </trkpt>
      <trkpt lat="46.77925" lon="6.46913">
        <ele>1352.16</ele>
        <time>2018-05-06T11:57:17.090Z</time>
      </trkpt>
      <trkpt lat="46.77913" lon="6.46902">
        <ele>1351.582</ele>
        <time>2018-05-06T11:57:34.618Z</time>
      </trkpt>
      <trkpt lat="46.77906" lon="6.46895">
        <ele>1351.265</ele>
        <time>2018-05-06T11:57:41.901Z</time>
      </trkpt>
      <trkpt lat="46.77897" lon="6.46888">
        <ele>1351.706</ele>
        <time>2018-05-06T11:57:48.989Z</time>
      </trkpt>
      <trkpt lat="46.77897" lon="6.46888">
        <ele>1352.368</ele>
        <time>2018-05-06T11:57:53.989Z</time>
      </trkpt>
      <trkpt lat="46.77897" lon="6.46888">
        <ele>1352.434</ele>
        <time>2018-05-06T11:58:29.221Z</time>
      </trkpt>
      <trkpt lat="46.77888" lon="6.46879">
        <ele>1351.822</ele>
        <time>2018-05-06T11:58:45.295Z</time>
      </trkpt>
      <trkpt lat="46.7788" lon="6.46873">
        <ele>1351.213</ele>
        <time>2018-05-06T11:58:55.055Z</time>
      </trkpt>
      <trkpt lat="46.77872" lon="6.46866">
        <ele>1351.129</ele>
        <time>2018-05-06T11:59:05.873Z</time>
      </trkpt>
      <trkpt lat="46.77863" lon="6.46859">
        <ele>1351.437</ele>
        <time>2018-05-06T11:59:16.812Z</time>
      </trkpt>
      <trkpt lat="46.77855" lon="6.46853">
        <ele>1351.863</ele>
        <time>2018-05-06T11:59:27.018Z</time>
      </trkpt>
      <trkpt lat="46.77847" lon="6.46846">
        <ele>1352.345</ele>
        <time>2018-05-06T11:59:37.773Z</time>
      </trkpt>
      <trkpt lat="46.77838" lon="6.4684">
        <ele>1352.875</ele>
        <time>2018-05-06T11:59:48.995Z</time>
      </trkpt>
      <trkpt lat="46.7783" lon="6.46833">
        <ele>1353.366</ele>
        <time>2018-05-06T12:00:00.738Z</time>
      </trkpt>
      <trkpt lat="46.77822" lon="6.46827">
        <ele>1353.796</ele>
        <time>2018-05-06T12:00:11.739Z</time>
      </trkpt>
      <trkpt lat="46.77813" lon="6.46823">
        <ele>1354.29</ele>
        <time>2018-05-06T12:00:22.901Z</time>
      </trkpt>
      <trkpt lat="46.77805" lon="6.46816">
        <ele>1354.812</ele>
        <time>2018-05-06T12:00:34.302Z</time>
      </trkpt>
      <trkpt lat="46.77797" lon="6.46809">
        <ele>1355.27</ele>
        <time>2018-05-06T12:00:46.928Z</time>
      </trkpt>
      <trkpt lat="46.77789" lon="6.46801">
        <ele>1355.813</ele>
        <time>2018-05-06T12:00:59.817Z</time>
      </trkpt>
      <trkpt lat="46.77782" lon="6.46791">
        <ele>1356.687</ele>
        <time>2018-05-06T12:01:12.099Z</time>
      </trkpt>
      <trkpt lat="46.77774" lon="6.46782">
        <ele>1357.804</ele>
        <time>2018-05-06T12:01:24.062Z</time>
      </trkpt>
      <trkpt lat="46.77766" lon="6.46776">
        <ele>1358.841</ele>
        <time>2018-05-06T12:01:37.941Z</time>
      </trkpt>
      <trkpt lat="46.77757" lon="6.46768">
        <ele>1359.657</ele>
        <time>2018-05-06T12:01:51.582Z</time>
      </trkpt>
      <trkpt lat="46.7775" lon="6.46761">
        <ele>1360.277</ele>
        <time>2018-05-06T12:02:01.996Z</time>
      </trkpt>
      <trkpt lat="46.7775" lon="6.46761">
        <ele>1360.661</ele>
        <time>2018-05-06T12:02:08.995Z</time>
      </trkpt>
      <trkpt lat="46.7775" lon="6.46761">
        <ele>1360.574</ele>
        <time>2018-05-06T12:02:33.525Z</time>
      </trkpt>
      <trkpt lat="46.77742" lon="6.46753">
        <ele>1359.984</ele>
        <time>2018-05-06T12:02:52.209Z</time>
      </trkpt>
      <trkpt lat="46.77734" lon="6.46746">
        <ele>1359.659</ele>
        <time>2018-05-06T12:03:04.915Z</time>
      </trkpt>
      <trkpt lat="46.77727" lon="6.46737">
        <ele>1361.036</ele>
        <time>2018-05-06T12:03:18.039Z</time>
      </trkpt>
      <trkpt lat="46.77719" lon="6.4673">
        <ele>1361.813</ele>
        <time>2018-05-06T12:03:30.434Z</time>
      </trkpt>
      <trkpt lat="46.77713" lon="6.4672">
        <ele>1362.69</ele>
        <time>2018-05-06T12:03:42.901Z</time>
      </trkpt>
      <trkpt lat="46.77705" lon="6.46714">
        <ele>1364.389</ele>
        <time>2018-05-06T12:03:55.729Z</time>
      </trkpt>
      <trkpt lat="46.77697" lon="6.46705">
        <ele>1364.926</ele>
        <time>2018-05-06T12:04:08.170Z</time>
      </trkpt>
      <trkpt lat="46.77691" lon="6.46694">
        <ele>1365.962</ele>
        <time>2018-05-06T12:04:21.612Z</time>
      </trkpt>
      <trkpt lat="46.77684" lon="6.46685">
        <ele>1367.617</ele>
        <time>2018-05-06T12:04:34.917Z</time>
      </trkpt>
      <trkpt lat="46.77678" lon="6.46675">
        <ele>1369.148</ele>
        <time>2018-05-06T12:04:47.275Z</time>
      </trkpt>
      <trkpt lat="46.77671" lon="6.46666">
        <ele>1369.973</ele>
        <time>2018-05-06T12:04:59.021Z</time>
      </trkpt>
      <trkpt lat="46.77664" lon="6.46656">
        <ele>1370.165</ele>
        <time>2018-05-06T12:05:12.173Z</time>
      </trkpt>
      <trkpt lat="46.77657" lon="6.46647">
        <ele>1370.049</ele>
        <time>2018-05-06T12:05:25.061Z</time>
      </trkpt>
      <trkpt lat="46.7765" lon="6.46636">
        <ele>1369.879</ele>
        <time>2018-05-06T12:05:38.286Z</time>
      </trkpt>
      <trkpt lat="46.77643" lon="6.46627">
        <ele>1369.726</ele>
        <time>2018-05-06T12:05:49.987Z</time>
      </trkpt>
      <trkpt lat="46.77643" lon="6.46627">
        <ele>1369.521</ele>
        <time>2018-05-06T12:05:53.987Z</time>
      </trkpt>
      <trkpt lat="46.77643" lon="6.46627">
        <ele>1368.991</ele>
        <time>2018-05-06T12:09:49.117Z</time>
      </trkpt>
      <trkpt lat="46.77637" lon="6.46617">
        <ele>1368.006</ele>
        <time>2018-05-06T12:10:09.556Z</time>
      </trkpt>
      <trkpt lat="46.7763" lon="6.46606">
        <ele>1368.094</ele>
        <time>2018-05-06T12:10:20.993Z</time>
      </trkpt>
      <trkpt lat="46.7763" lon="6.46606">
        <ele>1368.999</ele>
        <time>2018-05-06T12:10:24.992Z</time>
      </trkpt>
      <trkpt lat="46.7763" lon="6.46606">
        <ele>1368.426</ele>
        <time>2018-05-06T12:10:34.692Z</time>
      </trkpt>
      <trkpt lat="46.77624" lon="6.46598">
        <ele>1367.233</ele>
        <time>2018-05-06T12:10:50.413Z</time>
      </trkpt>
      <trkpt lat="46.77617" lon="6.46587">
        <ele>1367.589</ele>
        <time>2018-05-06T12:11:01.557Z</time>
      </trkpt>
      <trkpt lat="46.77611" lon="6.46577">
        <ele>1368.665</ele>
        <time>2018-05-06T12:11:11.530Z</time>
      </trkpt>
      <trkpt lat="46.77604" lon="6.46568">
        <ele>1369.876</ele>
        <time>2018-05-06T12:11:22.112Z</time>
      </trkpt>
      <trkpt lat="46.776" lon="6.46555">
        <ele>1371.012</ele>
        <time>2018-05-06T12:11:33.128Z</time>
      </trkpt>
      <trkpt lat="46.77593" lon="6.46546">
        <ele>1370.71</ele>
        <time>2018-05-06T12:11:43.763Z</time>
      </trkpt>
      <trkpt lat="46.77587" lon="6.46536">
        <ele>1371.146</ele>
        <time>2018-05-06T12:11:53.546Z</time>
      </trkpt>
      <trkpt lat="46.77581" lon="6.46524">
        <ele>1372.646</ele>
        <time>2018-05-06T12:12:03.085Z</time>
      </trkpt>
      <trkpt lat="46.77575" lon="6.46513">
        <ele>1373.131</ele>
        <time>2018-05-06T12:12:12.561Z</time>
      </trkpt>
      <trkpt lat="46.77569" lon="6.46503">
        <ele>1373.547</ele>
        <time>2018-05-06T12:12:21.928Z</time>
      </trkpt>
      <trkpt lat="46.77561" lon="6.46496">
        <ele>1373.911</ele>
        <time>2018-05-06T12:12:31.988Z</time>
      </trkpt>
      <trkpt lat="46.77561" lon="6.46496">
        <ele>1374.22</ele>
        <time>2018-05-06T12:12:42.987Z</time>
      </trkpt>
      <trkpt lat="46.77561" lon="6.46496">
        <ele>1374.162</ele>
        <time>2018-05-06T12:12:43.087Z</time>
      </trkpt>
      <trkpt lat="46.77551" lon="6.46484">
        <ele>1373.578</ele>
        <time>2018-05-06T12:12:59.603Z</time>
      </trkpt>
      <trkpt lat="46.77544" lon="6.46475">
        <ele>1373.454</ele>
        <time>2018-05-06T12:13:06.986Z</time>
      </trkpt>
      <trkpt lat="46.77544" lon="6.46475">
        <ele>1374.532</ele>
        <time>2018-05-06T12:13:15.986Z</time>
      </trkpt>
      <trkpt lat="46.77544" lon="6.46475">
        <ele>1375.422</ele>
        <time>2018-05-06T12:13:16.086Z</time>
      </trkpt>
      <trkpt lat="46.77536" lon="6.46468">
        <ele>1374.858</ele>
        <time>2018-05-06T12:13:31.845Z</time>
      </trkpt>
      <trkpt lat="46.77528" lon="6.46461">
        <ele>1374.498</ele>
        <time>2018-05-06T12:13:41.528Z</time>
      </trkpt>
      <trkpt lat="46.77522" lon="6.46451">
        <ele>1375.976</ele>
        <time>2018-05-06T12:13:49.496Z</time>
      </trkpt>
      <trkpt lat="46.77516" lon="6.4644">
        <ele>1378.144</ele>
        <time>2018-05-06T12:13:56.688Z</time>
      </trkpt>
      <trkpt lat="46.7751" lon="6.4643">
        <ele>1379.426</ele>
        <time>2018-05-06T12:14:03.879Z</time>
      </trkpt>
      <trkpt lat="46.77504" lon="6.4642">
        <ele>1379.751</ele>
        <time>2018-05-06T12:14:11.202Z</time>
      </trkpt>
      <trkpt lat="46.77499" lon="6.46408">
        <ele>1379.57</ele>
        <time>2018-05-06T12:14:18.640Z</time>
      </trkpt>
      <trkpt lat="46.77494" lon="6.46395">
        <ele>1379.277</ele>
        <time>2018-05-06T12:14:26.034Z</time>
      </trkpt>
      <trkpt lat="46.7749" lon="6.46384">
        <ele>1379.026</ele>
        <time>2018-05-06T12:14:32.996Z</time>
      </trkpt>
      <trkpt lat="46.7749" lon="6.46384">
        <ele>1378.794</ele>
        <time>2018-05-06T12:14:44.998Z</time>
      </trkpt>
      <trkpt lat="46.7749" lon="6.46384">
        <ele>1378.448</ele>
        <time>2018-05-06T12:17:25.521Z</time>
      </trkpt>
      <trkpt lat="46.77485" lon="6.4636">
        <ele>1377.959</ele>
        <time>2018-05-06T12:17:49.537Z</time>
      </trkpt>
      <trkpt lat="46.77475" lon="6.46357">
        <ele>1377.691</ele>
        <time>2018-05-06T12:17:58.100Z</time>
      </trkpt>
      <trkpt lat="46.77469" lon="6.46346">
        <ele>1378.131</ele>
        <time>2018-05-06T12:18:06.991Z</time>
      </trkpt>
      <trkpt lat="46.77469" lon="6.46346">
        <ele>1379.101</ele>
        <time>2018-05-06T12:18:11.991Z</time>
      </trkpt>
      <trkpt lat="46.77469" lon="6.46346">
        <ele>1379.567</ele>
        <time>2018-05-06T12:18:22.861Z</time>
      </trkpt>
      <trkpt lat="46.77463" lon="6.46337">
        <ele>1378.023</ele>
        <time>2018-05-06T12:18:41.536Z</time>
      </trkpt>
      <trkpt lat="46.77455" lon="6.46329">
        <ele>1377.925</ele>
        <time>2018-05-06T12:18:53.666Z</time>
      </trkpt>
      <trkpt lat="46.77447" lon="6.46321">
        <ele>1379.646</ele>
        <time>2018-05-06T12:19:04.426Z</time>
      </trkpt>
      <trkpt lat="46.77441" lon="6.4631">
        <ele>1381.693</ele>
        <time>2018-05-06T12:19:15.136Z</time>
      </trkpt>
      <trkpt lat="46.77433" lon="6.46301">
        <ele>1382.902</ele>
        <time>2018-05-06T12:19:25.301Z</time>
      </trkpt>
      <trkpt lat="46.77428" lon="6.46291">
        <ele>1383.217</ele>
        <time>2018-05-06T12:19:34.635Z</time>
      </trkpt>
      <trkpt lat="46.7742" lon="6.46284">
        <ele>1383.16</ele>
        <time>2018-05-06T12:19:45.589Z</time>
      </trkpt>
      <trkpt lat="46.77411" lon="6.46279">
        <ele>1383.216</ele>
        <time>2018-05-06T12:19:57.330Z</time>
      </trkpt>
      <trkpt lat="46.77402" lon="6.46277">
        <ele>1383.665</ele>
        <time>2018-05-06T12:20:10.089Z</time>
      </trkpt>
      <trkpt lat="46.77394" lon="6.46269">
        <ele>1384.629</ele>
        <time>2018-05-06T12:20:22.559Z</time>
      </trkpt>
      <trkpt lat="46.77387" lon="6.4626">
        <ele>1386.011</ele>
        <time>2018-05-06T12:20:35.612Z</time>
      </trkpt>
      <trkpt lat="46.7738" lon="6.46251">
        <ele>1387.446</ele>
        <time>2018-05-06T12:20:50.098Z</time>
      </trkpt>
      <trkpt lat="46.77372" lon="6.46244">
        <ele>1388.836</ele>
        <time>2018-05-06T12:21:05.020Z</time>
      </trkpt>
      <trkpt lat="46.77364" lon="6.46236">
        <ele>1390.445</ele>
        <time>2018-05-06T12:21:19.055Z</time>
      </trkpt>
      <trkpt lat="46.77355" lon="6.46234">
        <ele>1393.247</ele>
        <time>2018-05-06T12:21:33.993Z</time>
      </trkpt>
      <trkpt lat="46.77355" lon="6.46234">
        <ele>1393.584</ele>
        <time>2018-05-06T12:21:41.995Z</time>
      </trkpt>
      <trkpt lat="46.77355" lon="6.46234">
        <ele>1393.045</ele>
        <time>2018-05-06T12:23:16.835Z</time>
      </trkpt>
      <trkpt lat="46.77347" lon="6.46226">
        <ele>1392.277</ele>
        <time>2018-05-06T12:24:23.965Z</time>
      </trkpt>
      <trkpt lat="46.77337" lon="6.46225">
        <ele>1392.905</ele>
        <time>2018-05-06T12:24:37.595Z</time>
      </trkpt>
      <trkpt lat="46.77329" lon="6.46219">
        <ele>1395.705</ele>
        <time>2018-05-06T12:24:45.993Z</time>
      </trkpt>
      <trkpt lat="46.77329" lon="6.46219">
        <ele>1399.1</ele>
        <time>2018-05-06T12:24:57.992Z</time>
      </trkpt>
      <trkpt lat="46.77329" lon="6.46219">
        <ele>1400.613</ele>
        <time>2018-05-06T12:24:58.092Z</time>
      </trkpt>
      <trkpt lat="46.77303" lon="6.46211">
        <ele>1399.872</ele>
        <time>2018-05-06T12:26:39.988Z</time>
      </trkpt>
      <trkpt lat="46.77303" lon="6.46211">
        <ele>1398.498</ele>
        <time>2018-05-06T12:26:43.988Z</time>
      </trkpt>
      <trkpt lat="46.77303" lon="6.46211">
        <ele>1397.873</ele>
        <time>2018-05-06T12:26:44.088Z</time>
      </trkpt>
      <trkpt lat="46.77287" lon="6.462">
        <ele>1397.902</ele>
        <time>2018-05-06T12:27:18.987Z</time>
      </trkpt>
      <trkpt lat="46.77287" lon="6.462">
        <ele>1397.912</ele>
        <time>2018-05-06T12:27:26.986Z</time>
      </trkpt>
      <trkpt lat="46.77287" lon="6.462">
        <ele>1397.478</ele>
        <time>2018-05-06T12:27:27.086Z</time>
      </trkpt>
      <trkpt lat="46.77274" lon="6.46192">
        <ele>1396.809</ele>
        <time>2018-05-06T12:27:47.391Z</time>
      </trkpt>
      <trkpt lat="46.77266" lon="6.46186">
        <ele>1398.683</ele>
        <time>2018-05-06T12:27:57.318Z</time>
      </trkpt>
      <trkpt lat="46.77257" lon="6.4618">
        <ele>1404.701</ele>
        <time>2018-05-06T12:28:07.985Z</time>
      </trkpt>
      <trkpt lat="46.77257" lon="6.4618">
        <ele>1411.203</ele>
        <time>2018-05-06T12:28:10.985Z</time>
      </trkpt>
      <trkpt lat="46.77257" lon="6.4618">
        <ele>1413.88</ele>
        <time>2018-05-06T12:28:11.085Z</time>
      </trkpt>
      <trkpt lat="46.77248" lon="6.46179">
        <ele>1410.883</ele>
        <time>2018-05-06T12:28:32.856Z</time>
      </trkpt>
      <trkpt lat="46.77239" lon="6.46174">
        <ele>1410.5</ele>
        <time>2018-05-06T12:28:50.995Z</time>
      </trkpt>
      <trkpt lat="46.77239" lon="6.46174">
        <ele>1412.465</ele>
        <time>2018-05-06T12:28:52.996Z</time>
      </trkpt>
      <trkpt lat="46.77239" lon="6.46174">
        <ele>1414.225</ele>
        <time>2018-05-06T12:28:53.096Z</time>
      </trkpt>
      <trkpt lat="46.77231" lon="6.46168">
        <ele>1411.986</ele>
        <time>2018-05-06T12:29:25.998Z</time>
      </trkpt>
      <trkpt lat="46.77231" lon="6.46168">
        <ele>1410.902</ele>
        <time>2018-05-06T12:29:27.998Z</time>
      </trkpt>
      <trkpt lat="46.77231" lon="6.46168">
        <ele>1410.493</ele>
        <time>2018-05-06T12:29:29.719Z</time>
      </trkpt>
      <trkpt lat="46.7722" lon="6.46174">
        <ele>1410.373</ele>
        <time>2018-05-06T12:29:55.029Z</time>
      </trkpt>
      <trkpt lat="46.77211" lon="6.4617">
        <ele>1411.966</ele>
        <time>2018-05-06T12:30:11.997Z</time>
      </trkpt>
      <trkpt lat="46.77211" lon="6.4617">
        <ele>1416.224</ele>
        <time>2018-05-06T12:30:17.996Z</time>
      </trkpt>
      <trkpt lat="46.77211" lon="6.4617">
        <ele>1419.558</ele>
        <time>2018-05-06T12:30:18.096Z</time>
      </trkpt>
      <trkpt lat="46.77188" lon="6.46177">
        <ele>1418.911</ele>
        <time>2018-05-06T12:31:29.994Z</time>
      </trkpt>
      <trkpt lat="46.77188" lon="6.46177">
        <ele>1416.797</ele>
        <time>2018-05-06T12:31:33.993Z</time>
      </trkpt>
      <trkpt lat="46.77188" lon="6.46177">
        <ele>1416.08</ele>
        <time>2018-05-06T12:31:42.993Z</time>
      </trkpt>
      <trkpt lat="46.77188" lon="6.46177">
        <ele>1416.222</ele>
        <time>2018-05-06T12:32:01.456Z</time>
      </trkpt>
      <trkpt lat="46.77168" lon="6.4618">
        <ele>1415.993</ele>
        <time>2018-05-06T12:32:36.932Z</time>
      </trkpt>
      <trkpt lat="46.77159" lon="6.4618">
        <ele>1419.158</ele>
        <time>2018-05-06T12:32:46.991Z</time>
      </trkpt>
      <trkpt lat="46.77159" lon="6.4618">
        <ele>1428.406</ele>
        <time>2018-05-06T12:32:49.990Z</time>
      </trkpt>
      <trkpt lat="46.77159" lon="6.4618">
        <ele>1436.061</ele>
        <time>2018-05-06T12:33:00.998Z</time>
      </trkpt>
      <trkpt lat="46.77149" lon="6.46183">
        <ele>1435.354</ele>
        <time>2018-05-06T12:33:15.989Z</time>
      </trkpt>
      <trkpt lat="46.77149" lon="6.46183">
        <ele>1431.533</ele>
        <time>2018-05-06T12:33:38.989Z</time>
      </trkpt>
      <trkpt lat="46.77149" lon="6.46183">
        <ele>1430.64</ele>
        <time>2018-05-06T12:33:39.089Z</time>
      </trkpt>
      <trkpt lat="46.77136" lon="6.4618">
        <ele>1432.018</ele>
        <time>2018-05-06T12:33:58.988Z</time>
      </trkpt>
      <trkpt lat="46.77136" lon="6.4618">
        <ele>1432.847</ele>
        <time>2018-05-06T12:34:05.988Z</time>
      </trkpt>
      <trkpt lat="46.77136" lon="6.4618">
        <ele>1432.339</ele>
        <time>2018-05-06T12:34:06.088Z</time>
      </trkpt>
      <trkpt lat="46.77122" lon="6.46179">
        <ele>1431.471</ele>
        <time>2018-05-06T12:34:14.987Z</time>
      </trkpt>
      <trkpt lat="46.77122" lon="6.46179">
        <ele>1431.079</ele>
        <time>2018-05-06T12:34:40.986Z</time>
      </trkpt>
      <trkpt lat="46.77122" lon="6.46179">
        <ele>1430.84</ele>
        <time>2018-05-06T12:34:41.086Z</time>
      </trkpt>
      <trkpt lat="46.77097" lon="6.46174">
        <ele>1430.421</ele>
        <time>2018-05-06T12:35:41.803Z</time>
      </trkpt>
      <trkpt lat="46.77088" lon="6.46169">
        <ele>1434.289</ele>
        <time>2018-05-06T12:35:49.560Z</time>
      </trkpt>
      <trkpt lat="46.77079" lon="6.46169">
        <ele>1445.369</ele>
        <time>2018-05-06T12:35:56.993Z</time>
      </trkpt>
      <trkpt lat="46.77079" lon="6.46169">
        <ele>1457.043</ele>
        <time>2018-05-06T12:36:05.996Z</time>
      </trkpt>
      <trkpt lat="46.77079" lon="6.46169">
        <ele>1461.894</ele>
        <time>2018-05-06T12:36:06.096Z</time>
      </trkpt>
      <trkpt lat="46.77071" lon="6.4616">
        <ele>1457.476</ele>
        <time>2018-05-06T12:36:18.054Z</time>
      </trkpt>
      <trkpt lat="46.77063" lon="6.46155">
        <ele>1456.56</ele>
        <time>2018-05-06T12:36:24.998Z</time>
      </trkpt>
      <trkpt lat="46.77063" lon="6.46155">
        <ele>1458.833</ele>
        <time>2018-05-06T12:36:30.998Z</time>
      </trkpt>
      <trkpt lat="46.77063" lon="6.46155">
        <ele>1461.051</ele>
        <time>2018-05-06T12:36:31.098Z</time>
      </trkpt>
      <trkpt lat="46.77051" lon="6.46156">
        <ele>1460.47</ele>
        <time>2018-05-06T12:36:58.998Z</time>
      </trkpt>
      <trkpt lat="46.77051" lon="6.46156">
        <ele>1458.764</ele>
        <time>2018-05-06T12:37:11.997Z</time>
      </trkpt>
      <trkpt lat="46.77051" lon="6.46156">
        <ele>1458.065</ele>
        <time>2018-05-06T12:37:12.097Z</time>
      </trkpt>
      <trkpt lat="46.77025" lon="6.46164">
        <ele>1458.252</ele>
        <time>2018-05-06T12:38:29.994Z</time>
      </trkpt>
      <trkpt lat="46.77025" lon="6.46164">
        <ele>1458.356</ele>
        <time>2018-05-06T12:38:45.994Z</time>
      </trkpt>
      <trkpt lat="46.77025" lon="6.46164">
        <ele>1457.888</ele>
        <time>2018-05-06T12:38:46.094Z</time>
      </trkpt>
      <trkpt lat="46.77005" lon="6.46168">
        <ele>1457.166</ele>
        <time>2018-05-06T12:39:23.992Z</time>
      </trkpt>
      <trkpt lat="46.77005" lon="6.46168">
        <ele>1456.7</ele>
        <time>2018-05-06T12:39:27.992Z</time>
      </trkpt>
      <trkpt lat="46.77005" lon="6.46168">
        <ele>1456.391</ele>
        <time>2018-05-06T12:39:28.092Z</time>
      </trkpt>
      <trkpt lat="46.76996" lon="6.46163">
        <ele>1455.987</ele>
        <time>2018-05-06T12:39:35.992Z</time>
      </trkpt>
      <trkpt lat="46.76996" lon="6.46163">
        <ele>1455.542</ele>
        <time>2018-05-06T12:40:12.990Z</time>
      </trkpt>
      <trkpt lat="46.76996" lon="6.46163">
        <ele>1455.105</ele>
        <time>2018-05-06T12:40:13.090Z</time>
      </trkpt>
      <trkpt lat="46.76971" lon="6.46157">
        <ele>1454.656</ele>
        <time>2018-05-06T12:41:18.988Z</time>
      </trkpt>
      <trkpt lat="46.76971" lon="6.46157">
        <ele>1454.283</ele>
        <time>2018-05-06T12:41:22.988Z</time>
      </trkpt>
      <trkpt lat="46.76971" lon="6.46157">
        <ele>1453.894</ele>
        <time>2018-05-06T12:41:23.088Z</time>
      </trkpt>
      <trkpt lat="46.76961" lon="6.46156">
        <ele>1453.42</ele>
        <time>2018-05-06T12:41:51.987Z</time>
      </trkpt>
      <trkpt lat="46.76961" lon="6.46156">
        <ele>1453</ele>
        <time>2018-05-06T12:41:54.987Z</time>
      </trkpt>
      <trkpt lat="46.76961" lon="6.46156">
        <ele>1452.605</ele>
        <time>2018-05-06T12:42:04.778Z</time>
      </trkpt>
      <trkpt lat="46.76967" lon="6.46181">
        <ele>1452.155</ele>
        <time>2018-05-06T12:42:47.984Z</time>
      </trkpt>
      <trkpt lat="46.76967" lon="6.46181">
        <ele>1451.751</ele>
        <time>2018-05-06T12:42:51.984Z</time>
      </trkpt>
      <trkpt lat="46.76967" lon="6.46181">
        <ele>1451.352</ele>
        <time>2018-05-06T12:43:23.214Z</time>
      </trkpt>
      <trkpt lat="46.76968" lon="6.46197">
        <ele>1450.892</ele>
        <time>2018-05-06T12:44:01.998Z</time>
      </trkpt>
      <trkpt lat="46.76968" lon="6.46197">
        <ele>1450.488</ele>
        <time>2018-05-06T12:44:10.998Z</time>
      </trkpt>
      <trkpt lat="46.76968" lon="6.46197">
        <ele>1450.093</ele>
        <time>2018-05-06T12:44:11.098Z</time>
      </trkpt>
      <trkpt lat="46.7697" lon="6.46211">
        <ele>1449.635</ele>
        <time>2018-05-06T12:44:32.381Z</time>
      </trkpt>
      <trkpt lat="46.76973" lon="6.46223">
        <ele>1457.986</ele>
        <time>2018-05-06T12:44:45.996Z</time>
      </trkpt>
      <trkpt lat="46.76973" lon="6.46223">
        <ele>1480.516</ele>
        <time>2018-05-06T12:45:03.995Z</time>
      </trkpt>
      <trkpt lat="46.76973" lon="6.46223">
        <ele>1499.171</ele>
        <time>2018-05-06T12:45:04.095Z</time>
      </trkpt>
      <trkpt lat="46.7699" lon="6.46247">
        <ele>1498.244</ele>
        <time>2018-05-06T12:45:59.993Z</time>
      </trkpt>
      <trkpt lat="46.7699" lon="6.46247">
        <ele>1490.073</ele>
        <time>2018-05-06T12:46:03.993Z</time>
      </trkpt>
      <trkpt lat="46.7699" lon="6.46247">
        <ele>1488.732</ele>
        <time>2018-05-06T12:48:11.760Z</time>
      </trkpt>
      <trkpt lat="46.76989" lon="6.46274">
        <ele>1492.5</ele>
        <time>2018-05-06T12:48:54.986Z</time>
      </trkpt>
      <trkpt lat="46.76989" lon="6.46274">
        <ele>1494.923</ele>
        <time>2018-05-06T12:49:06.986Z</time>
      </trkpt>
      <trkpt lat="46.76989" lon="6.46274">
        <ele>1494.535</ele>
        <time>2018-05-06T12:50:18.480Z</time>
      </trkpt>
      <trkpt lat="46.76996" lon="6.46287">
        <ele>1493.38</ele>
        <time>2018-05-06T12:50:37.657Z</time>
      </trkpt>
      <trkpt lat="46.77003" lon="6.46296">
        <ele>1497.964</ele>
        <time>2018-05-06T12:50:49.156Z</time>
      </trkpt>
      <trkpt lat="46.7701" lon="6.46306">
        <ele>1511.051</ele>
        <time>2018-05-06T12:51:01.016Z</time>
      </trkpt>
      <trkpt lat="46.77016" lon="6.46315">
        <ele>1524.786</ele>
        <time>2018-05-06T12:51:13.304Z</time>
      </trkpt>
      <trkpt lat="46.77022" lon="6.46325">
        <ele>1533.212</ele>
        <time>2018-05-06T12:51:24.997Z</time>
      </trkpt>
      <trkpt lat="46.77022" lon="6.46325">
        <ele>1532.688</ele>
        <time>2018-05-06T12:51:29.997Z</time>
      </trkpt>
      <trkpt lat="46.77022" lon="6.46325">
        <ele>1531.928</ele>
        <time>2018-05-06T12:51:30.097Z</time>
      </trkpt>
      <trkpt lat="46.77028" lon="6.46337">
        <ele>1531.056</ele>
        <time>2018-05-06T12:52:40.904Z</time>
      </trkpt>
      <trkpt lat="46.77034" lon="6.46347">
        <ele>1531.185</ele>
        <time>2018-05-06T12:52:55.213Z</time>
      </trkpt>
      <trkpt lat="46.77044" lon="6.46347">
        <ele>1531.96</ele>
        <time>2018-05-06T12:53:06.868Z</time>
      </trkpt>
      <trkpt lat="46.77053" lon="6.4635">
        <ele>1532.942</ele>
        <time>2018-05-06T12:53:19.086Z</time>
      </trkpt>
      <trkpt lat="46.77061" lon="6.46353">
        <ele>1533.738</ele>
        <time>2018-05-06T12:53:32.729Z</time>
      </trkpt>
      <trkpt lat="46.77071" lon="6.46357">
        <ele>1534.784</ele>
        <time>2018-05-06T12:53:46.992Z</time>
      </trkpt>
      <trkpt lat="46.77071" lon="6.46357">
        <ele>1534.838</ele>
        <time>2018-05-06T12:53:50.991Z</time>
      </trkpt>
      <trkpt lat="46.77071" lon="6.46357">
        <ele>1534.238</ele>
        <time>2018-05-06T12:53:53.856Z</time>
      </trkpt>
      <trkpt lat="46.7708" lon="6.4636">
        <ele>1533.438</ele>
        <time>2018-05-06T12:54:11.538Z</time>
      </trkpt>
      <trkpt lat="46.77088" lon="6.46364">
        <ele>1533.705</ele>
        <time>2018-05-06T12:54:25.175Z</time>
      </trkpt>
      <trkpt lat="46.77097" lon="6.4637">
        <ele>1535.649</ele>
        <time>2018-05-06T12:54:44.771Z</time>
      </trkpt>
      <trkpt lat="46.77105" lon="6.46374">
        <ele>1538.322</ele>
        <time>2018-05-06T12:55:00.898Z</time>
      </trkpt>
      <trkpt lat="46.77114" lon="6.46379">
        <ele>1540.442</ele>
        <time>2018-05-06T12:55:15.431Z</time>
      </trkpt>
      <trkpt lat="46.77123" lon="6.46381">
        <ele>1542.336</ele>
        <time>2018-05-06T12:55:30.535Z</time>
      </trkpt>
      <trkpt lat="46.77131" lon="6.46387">
        <ele>1542.974</ele>
        <time>2018-05-06T12:55:44.996Z</time>
      </trkpt>
      <trkpt lat="46.77131" lon="6.46387">
        <ele>1543.708</ele>
        <time>2018-05-06T12:55:47.996Z</time>
      </trkpt>
      <trkpt lat="46.77131" lon="6.46387">
        <ele>1543.89</ele>
        <time>2018-05-06T12:55:48.096Z</time>
      </trkpt>
      <trkpt lat="46.77138" lon="6.46395">
        <ele>1542.343</ele>
        <time>2018-05-06T12:56:07.402Z</time>
      </trkpt>
      <trkpt lat="46.77146" lon="6.46403">
        <ele>1542.64</ele>
        <time>2018-05-06T12:56:20.895Z</time>
      </trkpt>
      <trkpt lat="46.77153" lon="6.46411">
        <ele>1546.864</ele>
        <time>2018-05-06T12:56:33.994Z</time>
      </trkpt>
      <trkpt lat="46.77153" lon="6.46411">
        <ele>1547.43</ele>
        <time>2018-05-06T12:56:50.994Z</time>
      </trkpt>
      <trkpt lat="46.77153" lon="6.46411">
        <ele>1546.388</ele>
        <time>2018-05-06T12:56:51.094Z</time>
      </trkpt>
      <trkpt lat="46.77165" lon="6.46428">
        <ele>1545.839</ele>
        <time>2018-05-06T12:57:46.327Z</time>
      </trkpt>
      <trkpt lat="46.7717" lon="6.4644">
        <ele>1546.888</ele>
        <time>2018-05-06T12:57:57.787Z</time>
      </trkpt>
      <trkpt lat="46.7717" lon="6.46454">
        <ele>1550.175</ele>
        <time>2018-05-06T12:58:10.414Z</time>
      </trkpt>
      <trkpt lat="46.77172" lon="6.46467">
        <ele>1554.09</ele>
        <time>2018-05-06T12:58:23.560Z</time>
      </trkpt>
      <trkpt lat="46.77174" lon="6.4648">
        <ele>1556.939</ele>
        <time>2018-05-06T12:58:36.612Z</time>
      </trkpt>
      <trkpt lat="46.77178" lon="6.46492">
        <ele>1558.802</ele>
        <time>2018-05-06T12:58:48.558Z</time>
      </trkpt>
      <trkpt lat="46.77178" lon="6.46506">
        <ele>1560.102</ele>
        <time>2018-05-06T12:58:59.996Z</time>
      </trkpt>
      <trkpt lat="46.77178" lon="6.46506">
        <ele>1560.903</ele>
        <time>2018-05-06T12:59:13.995Z</time>
      </trkpt>
      <trkpt lat="46.77178" lon="6.46506">
        <ele>1560.929</ele>
        <time>2018-05-06T12:59:14.095Z</time>
      </trkpt>
      <trkpt lat="46.77182" lon="6.46525">
        <ele>1560.23</ele>
        <time>2018-05-06T12:59:47.994Z</time>
      </trkpt>
      <trkpt lat="46.77182" lon="6.46525">
        <ele>1559.432</ele>
        <time>2018-05-06T12:59:55.994Z</time>
      </trkpt>
      <trkpt lat="46.77182" lon="6.46525">
        <ele>1558.938</ele>
        <time>2018-05-06T12:59:56.094Z</time>
      </trkpt>
      <trkpt lat="46.77188" lon="6.46535">
        <ele>1558.622</ele>
        <time>2018-05-06T13:00:03.993Z</time>
      </trkpt>
      <trkpt lat="46.77188" lon="6.46535">
        <ele>1558.322</ele>
        <time>2018-05-06T13:00:13.993Z</time>
      </trkpt>
      <trkpt lat="46.77188" lon="6.46535">
        <ele>1557.87</ele>
        <time>2018-05-06T13:00:16.545Z</time>
      </trkpt>
      <trkpt lat="46.77194" lon="6.46549">
        <ele>1557.298</ele>
        <time>2018-05-06T13:00:36.819Z</time>
      </trkpt>
      <trkpt lat="46.772" lon="6.4656">
        <ele>1558.179</ele>
        <time>2018-05-06T13:00:49.180Z</time>
      </trkpt>
      <trkpt lat="46.77207" lon="6.46569">
        <ele>1561.621</ele>
        <time>2018-05-06T13:01:02.153Z</time>
      </trkpt>
      <trkpt lat="46.77214" lon="6.46578">
        <ele>1565.803</ele>
        <time>2018-05-06T13:01:14.997Z</time>
      </trkpt>
      <trkpt lat="46.77214" lon="6.46578">
        <ele>1568.457</ele>
        <time>2018-05-06T13:01:26.997Z</time>
      </trkpt>
      <trkpt lat="46.77214" lon="6.46578">
        <ele>1569.107</ele>
        <time>2018-05-06T13:01:27.097Z</time>
      </trkpt>
      <trkpt lat="46.77222" lon="6.46591">
        <ele>1568.284</ele>
        <time>2018-05-06T13:01:37.997Z</time>
      </trkpt>
      <trkpt lat="46.77222" lon="6.46591">
        <ele>1567.18</ele>
        <time>2018-05-06T13:01:53.996Z</time>
      </trkpt>
      <trkpt lat="46.77222" lon="6.46591">
        <ele>1566.56</ele>
        <time>2018-05-06T13:01:54.096Z</time>
      </trkpt>
      <trkpt lat="46.77236" lon="6.46608">
        <ele>1566.364</ele>
        <time>2018-05-06T13:02:19.995Z</time>
      </trkpt>
      <trkpt lat="46.77236" lon="6.46608">
        <ele>1566.218</ele>
        <time>2018-05-06T13:02:37.994Z</time>
      </trkpt>
      <trkpt lat="46.77236" lon="6.46608">
        <ele>1565.767</ele>
        <time>2018-05-06T13:23:13.431Z</time>
      </trkpt>
      <trkpt lat="46.77239" lon="6.46622">
        <ele>1565.11</ele>
        <time>2018-05-06T13:23:25.992Z</time>
      </trkpt>
      <trkpt lat="46.77239" lon="6.46622">
        <ele>1564.61</ele>
        <time>2018-05-06T13:23:28.992Z</time>
      </trkpt>
      <trkpt lat="46.77239" lon="6.46622">
        <ele>1564.231</ele>
        <time>2018-05-06T13:26:14.995Z</time>
      </trkpt>
      <trkpt lat="46.77239" lon="6.46622">
        <ele>1563.716</ele>
        <time>2018-05-06T13:28:29.203Z</time>
      </trkpt>
      <trkpt lat="46.77239" lon="6.46622">
        <ele>1562.623</ele>
        <time>2018-05-06T13:28:40.995Z</time>
      </trkpt>
      <trkpt lat="46.77239" lon="6.46622">
        <ele>1562.228</ele>
        <time>2018-05-06T13:28:41.095Z</time>
      </trkpt>
      <trkpt lat="46.77239" lon="6.46622">
        <ele>1561.159</ele>
        <time>2018-05-06T13:28:42.995Z</time>
      </trkpt>
      <trkpt lat="46.77239" lon="6.46622">
        <ele>1560.697</ele>
        <time>2018-05-06T13:36:44.690Z</time>
      </trkpt>
      <trkpt lat="46.7723" lon="6.46615">
        <ele>1560.275</ele>
        <time>2018-05-06T13:36:55.996Z</time>
      </trkpt>
      <trkpt lat="46.7723" lon="6.46615">
        <ele>1559.887</ele>
        <time>2018-05-06T13:37:00.996Z</time>
      </trkpt>
      <trkpt lat="46.7723" lon="6.46615">
        <ele>1559.451</ele>
        <time>2018-05-06T13:39:10.021Z</time>
      </trkpt>
      <trkpt lat="46.77241" lon="6.46624">
        <ele>1558.931</ele>
        <time>2018-05-06T13:43:13.480Z</time>
      </trkpt>
      <trkpt lat="46.77232" lon="6.46623">
        <ele>1561.57</ele>
        <time>2018-05-06T13:45:46.174Z</time>
      </trkpt>
      <trkpt lat="46.77222" lon="6.46622">
        <ele>1577.165</ele>
        <time>2018-05-06T13:48:32.695Z</time>
      </trkpt>
      <trkpt lat="46.77212" lon="6.46617">
        <ele>1580.042</ele>
        <time>2018-05-06T13:49:30.984Z</time>
      </trkpt>
      <trkpt lat="46.77212" lon="6.46617">
        <ele>1579.357</ele>
        <time>2018-05-06T13:49:35.984Z</time>
      </trkpt>
      <trkpt lat="46.77212" lon="6.46617">
        <ele>1578.145</ele>
        <time>2018-05-06T13:49:37.916Z</time>
      </trkpt>
      <trkpt lat="46.77207" lon="6.46606">
        <ele>1577.391</ele>
        <time>2018-05-06T13:49:57.995Z</time>
      </trkpt>
      <trkpt lat="46.77207" lon="6.46606">
        <ele>1577.147</ele>
        <time>2018-05-06T13:50:01.996Z</time>
      </trkpt>
      <trkpt lat="46.77207" lon="6.46606">
        <ele>1576.478</ele>
        <time>2018-05-06T13:50:15.614Z</time>
      </trkpt>
      <trkpt lat="46.7721" lon="6.46594">
        <ele>1575.711</ele>
        <time>2018-05-06T13:50:28.793Z</time>
      </trkpt>
      <trkpt lat="46.77209" lon="6.4658">
        <ele>1574.823</ele>
        <time>2018-05-06T13:50:37.956Z</time>
      </trkpt>
      <trkpt lat="46.7721" lon="6.46566">
        <ele>1573.366</ele>
        <time>2018-05-06T13:50:45.951Z</time>
      </trkpt>
      <trkpt lat="46.77202" lon="6.4656">
        <ele>1571.754</ele>
        <time>2018-05-06T13:50:52.686Z</time>
      </trkpt>
      <trkpt lat="46.77194" lon="6.4655">
        <ele>1570.689</ele>
        <time>2018-05-06T13:50:59.997Z</time>
      </trkpt>
      <trkpt lat="46.77194" lon="6.4655">
        <ele>1570.057</ele>
        <time>2018-05-06T13:51:08.997Z</time>
      </trkpt>
      <trkpt lat="46.77194" lon="6.4655">
        <ele>1569.513</ele>
        <time>2018-05-06T13:51:44.648Z</time>
      </trkpt>
      <trkpt lat="46.77184" lon="6.46539">
        <ele>1568.975</ele>
        <time>2018-05-06T13:52:02.748Z</time>
      </trkpt>
      <trkpt lat="46.77183" lon="6.46526">
        <ele>1568.414</ele>
        <time>2018-05-06T13:52:11.778Z</time>
      </trkpt>
      <trkpt lat="46.77176" lon="6.46517">
        <ele>1567.837</ele>
        <time>2018-05-06T13:52:20.562Z</time>
      </trkpt>
      <trkpt lat="46.7717" lon="6.46506">
        <ele>1567.229</ele>
        <time>2018-05-06T13:52:30.071Z</time>
      </trkpt>
      <trkpt lat="46.77162" lon="6.46496">
        <ele>1566.322</ele>
        <time>2018-05-06T13:52:41.702Z</time>
      </trkpt>
      <trkpt lat="46.77155" lon="6.46487">
        <ele>1564.998</ele>
        <time>2018-05-06T13:52:50.555Z</time>
      </trkpt>
      <trkpt lat="46.77148" lon="6.46477">
        <ele>1563.482</ele>
        <time>2018-05-06T13:52:59.842Z</time>
      </trkpt>
      <trkpt lat="46.7714" lon="6.46471">
        <ele>1562.046</ele>
        <time>2018-05-06T13:53:08.047Z</time>
      </trkpt>
      <trkpt lat="46.77132" lon="6.46462">
        <ele>1560.861</ele>
        <time>2018-05-06T13:53:15.794Z</time>
      </trkpt>
      <trkpt lat="46.77125" lon="6.46454">
        <ele>1559.89</ele>
        <time>2018-05-06T13:53:22.992Z</time>
      </trkpt>
      <trkpt lat="46.77125" lon="6.46454">
        <ele>1559.065</ele>
        <time>2018-05-06T13:53:31.991Z</time>
      </trkpt>
      <trkpt lat="46.77125" lon="6.46454">
        <ele>1558.469</ele>
        <time>2018-05-06T13:53:52.237Z</time>
      </trkpt>
      <trkpt lat="46.77115" lon="6.46447">
        <ele>1558.036</ele>
        <time>2018-05-06T13:54:09.066Z</time>
      </trkpt>
      <trkpt lat="46.77107" lon="6.46439">
        <ele>1557.633</ele>
        <time>2018-05-06T13:54:17.535Z</time>
      </trkpt>
      <trkpt lat="46.77099" lon="6.46431">
        <ele>1557.133</ele>
        <time>2018-05-06T13:54:25.314Z</time>
      </trkpt>
      <trkpt lat="46.7709" lon="6.46428">
        <ele>1556.315</ele>
        <time>2018-05-06T13:54:32.588Z</time>
      </trkpt>
      <trkpt lat="46.77082" lon="6.46422">
        <ele>1554.907</ele>
        <time>2018-05-06T13:54:38.427Z</time>
      </trkpt>
      <trkpt lat="46.77075" lon="6.46412">
        <ele>1552.983</ele>
        <time>2018-05-06T13:54:44.355Z</time>
      </trkpt>
      <trkpt lat="46.77068" lon="6.46401">
        <ele>1550.045</ele>
        <time>2018-05-06T13:54:49.988Z</time>
      </trkpt>
      <trkpt lat="46.77068" lon="6.46401">
        <ele>1549.185</ele>
        <time>2018-05-06T13:54:56.988Z</time>
      </trkpt>
      <trkpt lat="46.77068" lon="6.46401">
        <ele>1548.4</ele>
        <time>2018-05-06T13:55:28.507Z</time>
      </trkpt>
      <trkpt lat="46.77057" lon="6.46396">
        <ele>1547.763</ele>
        <time>2018-05-06T13:55:37.641Z</time>
      </trkpt>
      <trkpt lat="46.77049" lon="6.46386">
        <ele>1547.047</ele>
        <time>2018-05-06T13:55:42.392Z</time>
      </trkpt>
      <trkpt lat="46.77042" lon="6.46374">
        <ele>1545.714</ele>
        <time>2018-05-06T13:55:47.306Z</time>
      </trkpt>
      <trkpt lat="46.77036" lon="6.46363">
        <ele>1543.562</ele>
        <time>2018-05-06T13:55:50.986Z</time>
      </trkpt>
      <trkpt lat="46.77036" lon="6.46363">
        <ele>1541.284</ele>
        <time>2018-05-06T13:56:01.985Z</time>
      </trkpt>
      <trkpt lat="46.77036" lon="6.46363">
        <ele>1539.776</ele>
        <time>2018-05-06T13:56:09.985Z</time>
      </trkpt>
      <trkpt lat="46.77036" lon="6.46363">
        <ele>1539.235</ele>
        <time>2018-05-06T13:58:08.967Z</time>
      </trkpt>
      <trkpt lat="46.77026" lon="6.46353">
        <ele>1539.019</ele>
        <time>2018-05-06T13:58:26.491Z</time>
      </trkpt>
      <trkpt lat="46.7702" lon="6.4634">
        <ele>1538.039</ele>
        <time>2018-05-06T13:58:34.093Z</time>
      </trkpt>
      <trkpt lat="46.77015" lon="6.46328">
        <ele>1536.024</ele>
        <time>2018-05-06T13:58:40.303Z</time>
      </trkpt>
      <trkpt lat="46.77008" lon="6.46318">
        <ele>1534.041</ele>
        <time>2018-05-06T13:58:46.325Z</time>
      </trkpt>
      <trkpt lat="46.77002" lon="6.46307">
        <ele>1532.908</ele>
        <time>2018-05-06T13:58:53.257Z</time>
      </trkpt>
      <trkpt lat="46.76999" lon="6.46295">
        <ele>1532.488</ele>
        <time>2018-05-06T13:58:59.998Z</time>
      </trkpt>
      <trkpt lat="46.76999" lon="6.46295">
        <ele>1532.412</ele>
        <time>2018-05-06T13:59:03.998Z</time>
      </trkpt>
      <trkpt lat="46.76999" lon="6.46295">
        <ele>1532.164</ele>
        <time>2018-05-06T14:00:43.574Z</time>
      </trkpt>
      <trkpt lat="46.76996" lon="6.46279">
        <ele>1530.894</ele>
        <time>2018-05-06T14:01:12.325Z</time>
      </trkpt>
      <trkpt lat="46.76993" lon="6.46266">
        <ele>1530.58</ele>
        <time>2018-05-06T14:01:21.039Z</time>
      </trkpt>
      <trkpt lat="46.76993" lon="6.46253">
        <ele>1530.518</ele>
        <time>2018-05-06T14:01:31.669Z</time>
      </trkpt>
      <trkpt lat="46.76987" lon="6.46243">
        <ele>1529.927</ele>
        <time>2018-05-06T14:01:47.482Z</time>
      </trkpt>
      <trkpt lat="46.7698" lon="6.46235">
        <ele>1527.94</ele>
        <time>2018-05-06T14:02:00.992Z</time>
      </trkpt>
      <trkpt lat="46.7698" lon="6.46235">
        <ele>1525.238</ele>
        <time>2018-05-06T14:02:11.991Z</time>
      </trkpt>
      <trkpt lat="46.7698" lon="6.46235">
        <ele>1523.409</ele>
        <time>2018-05-06T14:02:15.157Z</time>
      </trkpt>
      <trkpt lat="46.76974" lon="6.46223">
        <ele>1523.054</ele>
        <time>2018-05-06T14:02:31.660Z</time>
      </trkpt>
      <trkpt lat="46.76972" lon="6.4621">
        <ele>1522.684</ele>
        <time>2018-05-06T14:02:43.395Z</time>
      </trkpt>
      <trkpt lat="46.76966" lon="6.462">
        <ele>1520.753</ele>
        <time>2018-05-06T14:02:54.990Z</time>
      </trkpt>
      <trkpt lat="46.76966" lon="6.462">
        <ele>1518.009</ele>
        <time>2018-05-06T14:02:57.990Z</time>
      </trkpt>
      <trkpt lat="46.76966" lon="6.462">
        <ele>1516.144</ele>
        <time>2018-05-06T14:03:06.191Z</time>
      </trkpt>
      <trkpt lat="46.76961" lon="6.46187">
        <ele>1515.815</ele>
        <time>2018-05-06T14:04:17.986Z</time>
      </trkpt>
      <trkpt lat="46.76961" lon="6.46187">
        <ele>1515.805</ele>
        <time>2018-05-06T14:04:26.986Z</time>
      </trkpt>
      <trkpt lat="46.76961" lon="6.46187">
        <ele>1515.18</ele>
        <time>2018-05-06T14:04:27.086Z</time>
      </trkpt>
      <trkpt lat="46.76963" lon="6.46174">
        <ele>1514.002</ele>
        <time>2018-05-06T14:04:39.985Z</time>
      </trkpt>
      <trkpt lat="46.76963" lon="6.46174">
        <ele>1513.669</ele>
        <time>2018-05-06T14:04:46.985Z</time>
      </trkpt>
      <trkpt lat="46.76963" lon="6.46174">
        <ele>1513.026</ele>
        <time>2018-05-06T14:04:47.085Z</time>
      </trkpt>
      <trkpt lat="46.76959" lon="6.46159">
        <ele>1511.897</ele>
        <time>2018-05-06T14:04:56.985Z</time>
      </trkpt>
      <trkpt lat="46.76959" lon="6.46159">
        <ele>1511.553</ele>
        <time>2018-05-06T14:05:07.984Z</time>
      </trkpt>
      <trkpt lat="46.76959" lon="6.46159">
        <ele>1510.908</ele>
        <time>2018-05-06T14:05:20.442Z</time>
      </trkpt>
      <trkpt lat="46.76964" lon="6.46148">
        <ele>1509.784</ele>
        <time>2018-05-06T14:05:31.986Z</time>
      </trkpt>
      <trkpt lat="46.76964" lon="6.46148">
        <ele>1509.44</ele>
        <time>2018-05-06T14:05:36.990Z</time>
      </trkpt>
      <trkpt lat="46.76964" lon="6.46148">
        <ele>1508.796</ele>
        <time>2018-05-06T14:05:37.090Z</time>
      </trkpt>
      <trkpt lat="46.76971" lon="6.46156">
        <ele>1507.673</ele>
        <time>2018-05-06T14:08:01.995Z</time>
      </trkpt>
      <trkpt lat="46.76971" lon="6.46156">
        <ele>1507.33</ele>
        <time>2018-05-06T14:08:12.994Z</time>
      </trkpt>
      <trkpt lat="46.76971" lon="6.46156">
        <ele>1506.687</ele>
        <time>2018-05-06T14:08:13.094Z</time>
      </trkpt>
      <trkpt lat="46.76985" lon="6.46155">
        <ele>1505.969</ele>
        <time>2018-05-06T14:08:23.994Z</time>
      </trkpt>
      <trkpt lat="46.76985" lon="6.46155">
        <ele>1505.378</ele>
        <time>2018-05-06T14:08:38.993Z</time>
      </trkpt>
      <trkpt lat="46.76985" lon="6.46155">
        <ele>1504.707</ele>
        <time>2018-05-06T14:08:39.093Z</time>
      </trkpt>
      <trkpt lat="46.76996" lon="6.46156">
        <ele>1504.032</ele>
        <time>2018-05-06T14:08:52.993Z</time>
      </trkpt>
      <trkpt lat="46.76996" lon="6.46156">
        <ele>1503.448</ele>
        <time>2018-05-06T14:09:02.992Z</time>
      </trkpt>
      <trkpt lat="46.76996" lon="6.46156">
        <ele>1502.776</ele>
        <time>2018-05-06T14:09:03.092Z</time>
      </trkpt>
      <trkpt lat="46.77006" lon="6.46154">
        <ele>1501.705</ele>
        <time>2018-05-06T14:09:21.991Z</time>
      </trkpt>
      <trkpt lat="46.77006" lon="6.46154">
        <ele>1501.358</ele>
        <time>2018-05-06T14:09:26.991Z</time>
      </trkpt>
      <trkpt lat="46.77006" lon="6.46154">
        <ele>1500.716</ele>
        <time>2018-05-06T14:09:27.091Z</time>
      </trkpt>
      <trkpt lat="46.77015" lon="6.46156">
        <ele>1500.002</ele>
        <time>2018-05-06T14:09:36.991Z</time>
      </trkpt>
      <trkpt lat="46.77015" lon="6.46156">
        <ele>1499.414</ele>
        <time>2018-05-06T14:09:46.990Z</time>
      </trkpt>
      <trkpt lat="46.77015" lon="6.46156">
        <ele>1498.746</ele>
        <time>2018-05-06T14:09:56.459Z</time>
      </trkpt>
      <trkpt lat="46.77026" lon="6.46155">
        <ele>1498.073</ele>
        <time>2018-05-06T14:10:07.990Z</time>
      </trkpt>
      <trkpt lat="46.77026" lon="6.46155">
        <ele>1497.491</ele>
        <time>2018-05-06T14:10:11.989Z</time>
      </trkpt>
      <trkpt lat="46.77026" lon="6.46155">
        <ele>1496.822</ele>
        <time>2018-05-06T14:10:19.764Z</time>
      </trkpt>
      <trkpt lat="46.77033" lon="6.46145">
        <ele>1495.755</ele>
        <time>2018-05-06T14:10:32.852Z</time>
      </trkpt>
      <trkpt lat="46.77042" lon="6.46141">
        <ele>1493.04</ele>
        <time>2018-05-06T14:10:38.988Z</time>
      </trkpt>
      <trkpt lat="46.77042" lon="6.46141">
        <ele>1486.278</ele>
        <time>2018-05-06T14:10:43.988Z</time>
      </trkpt>
      <trkpt lat="46.77042" lon="6.46141">
        <ele>1480.416</ele>
        <time>2018-05-06T14:10:48.789Z</time>
      </trkpt>
      <trkpt lat="46.77042" lon="6.46141">
        <ele>1482.24</ele>
        <time>2018-05-06T14:10:55.988Z</time>
      </trkpt>
      <trkpt lat="46.77042" lon="6.46141">
        <ele>1483.589</ele>
        <time>2018-05-06T14:10:56.088Z</time>
      </trkpt>
      <trkpt lat="46.77042" lon="6.46141">
        <ele>1481.445</ele>
        <time>2018-05-06T14:10:59.988Z</time>
      </trkpt>
      <trkpt lat="46.77042" lon="6.46141">
        <ele>1480.544</ele>
        <time>2018-05-06T14:11:00.072Z</time>
      </trkpt>
      <trkpt lat="46.77054" lon="6.4614">
        <ele>1480.172</ele>
        <time>2018-05-06T14:11:16.987Z</time>
      </trkpt>
      <trkpt lat="46.77054" lon="6.4614">
        <ele>1479.77</ele>
        <time>2018-05-06T14:11:25.987Z</time>
      </trkpt>
      <trkpt lat="46.77054" lon="6.4614">
        <ele>1479.083</ele>
        <time>2018-05-06T14:11:44.538Z</time>
      </trkpt>
      <trkpt lat="46.77066" lon="6.46142">
        <ele>1478.401</ele>
        <time>2018-05-06T14:12:21.984Z</time>
      </trkpt>
      <trkpt lat="46.77066" lon="6.46142">
        <ele>1477.84</ele>
        <time>2018-05-06T14:12:33.984Z</time>
      </trkpt>
      <trkpt lat="46.77066" lon="6.46142">
        <ele>1477.184</ele>
        <time>2018-05-06T14:12:34.084Z</time>
      </trkpt>
      <trkpt lat="46.77082" lon="6.46148">
        <ele>1476.518</ele>
        <time>2018-05-06T14:13:09.283Z</time>
      </trkpt>
      <trkpt lat="46.77091" lon="6.46154">
        <ele>1474.456</ele>
        <time>2018-05-06T14:13:19.668Z</time>
      </trkpt>
      <trkpt lat="46.771" lon="6.4616">
        <ele>1470.47</ele>
        <time>2018-05-06T14:13:33.283Z</time>
      </trkpt>
      <trkpt lat="46.77109" lon="6.46164">
        <ele>1468.747</ele>
        <time>2018-05-06T14:13:45.939Z</time>
      </trkpt>
      <trkpt lat="46.77118" lon="6.46164">
        <ele>1466.586</ele>
        <time>2018-05-06T14:14:11.938Z</time>
      </trkpt>
      <trkpt lat="46.77127" lon="6.46164">
        <ele>1463.025</ele>
        <time>2018-05-06T14:14:30.996Z</time>
      </trkpt>
      <trkpt lat="46.77127" lon="6.46164">
        <ele>1461.52</ele>
        <time>2018-05-06T14:14:37.996Z</time>
      </trkpt>
      <trkpt lat="46.77127" lon="6.46164">
        <ele>1460.551</ele>
        <time>2018-05-06T14:14:38.096Z</time>
      </trkpt>
      <trkpt lat="46.77138" lon="6.46165">
        <ele>1459.834</ele>
        <time>2018-05-06T14:14:44.996Z</time>
      </trkpt>
      <trkpt lat="46.77138" lon="6.46165">
        <ele>1459.527</ele>
        <time>2018-05-06T14:14:54.995Z</time>
      </trkpt>
      <trkpt lat="46.77138" lon="6.46165">
        <ele>1458.898</ele>
        <time>2018-05-06T14:14:58.825Z</time>
      </trkpt>
      <trkpt lat="46.77138" lon="6.46165">
        <ele>1457.814</ele>
        <time>2018-05-06T14:15:10.995Z</time>
      </trkpt>
      <trkpt lat="46.77138" lon="6.46165">
        <ele>1457.539</ele>
        <time>2018-05-06T14:15:11.095Z</time>
      </trkpt>
      <trkpt lat="46.77138" lon="6.46165">
        <ele>1456.477</ele>
        <time>2018-05-06T14:15:13.995Z</time>
      </trkpt>
      <trkpt lat="46.77138" lon="6.46165">
        <ele>1456.027</ele>
        <time>2018-05-06T14:15:14.095Z</time>
      </trkpt>
      <trkpt lat="46.7715" lon="6.46164">
        <ele>1455.577</ele>
        <time>2018-05-06T14:15:57.121Z</time>
      </trkpt>
      <trkpt lat="46.77158" lon="6.46172">
        <ele>1454.685</ele>
        <time>2018-05-06T14:16:08.715Z</time>
      </trkpt>
      <trkpt lat="46.77167" lon="6.46169">
        <ele>1452.882</ele>
        <time>2018-05-06T14:16:19.753Z</time>
      </trkpt>
      <trkpt lat="46.77176" lon="6.46171">
        <ele>1450.313</ele>
        <time>2018-05-06T14:16:29.991Z</time>
      </trkpt>
      <trkpt lat="46.77185" lon="6.46164">
        <ele>1447.455</ele>
        <time>2018-05-06T14:16:39.991Z</time>
      </trkpt>
      <trkpt lat="46.77185" lon="6.46164">
        <ele>1444.876</ele>
        <time>2018-05-06T14:16:40.991Z</time>
      </trkpt>
      <trkpt lat="46.77185" lon="6.46164">
        <ele>1443.287</ele>
        <time>2018-05-06T14:17:46.253Z</time>
      </trkpt>
      <trkpt lat="46.77189" lon="6.46176">
        <ele>1442.806</ele>
        <time>2018-05-06T14:18:23.987Z</time>
      </trkpt>
      <trkpt lat="46.77189" lon="6.46176">
        <ele>1442.6</ele>
        <time>2018-05-06T14:18:38.986Z</time>
      </trkpt>
      <trkpt lat="46.77189" lon="6.46176">
        <ele>1442.024</ele>
        <time>2018-05-06T14:18:39.086Z</time>
      </trkpt>
      <trkpt lat="46.77192" lon="6.46164">
        <ele>1440.91</ele>
        <time>2018-05-06T14:18:55.843Z</time>
      </trkpt>
      <trkpt lat="46.77201" lon="6.46161">
        <ele>1440.11</ele>
        <time>2018-05-06T14:19:02.986Z</time>
      </trkpt>
      <trkpt lat="46.77201" lon="6.46161">
        <ele>1438.321</ele>
        <time>2018-05-06T14:19:15.985Z</time>
      </trkpt>
      <trkpt lat="46.77201" lon="6.46161">
        <ele>1436.613</ele>
        <time>2018-05-06T14:19:16.085Z</time>
      </trkpt>
      <trkpt lat="46.77213" lon="6.46158">
        <ele>1436.043</ele>
        <time>2018-05-06T14:19:33.688Z</time>
      </trkpt>
      <trkpt lat="46.77223" lon="6.46159">
        <ele>1435.294</ele>
        <time>2018-05-06T14:19:40.984Z</time>
      </trkpt>
      <trkpt lat="46.77223" lon="6.46159">
        <ele>1433.19</ele>
        <time>2018-05-06T14:19:43.984Z</time>
      </trkpt>
      <trkpt lat="46.77223" lon="6.46159">
        <ele>1431.112</ele>
        <time>2018-05-06T14:19:44.084Z</time>
      </trkpt>
      <trkpt lat="46.77232" lon="6.46162">
        <ele>1430.909</ele>
        <time>2018-05-06T14:20:26.996Z</time>
      </trkpt>
      <trkpt lat="46.77232" lon="6.46162">
        <ele>1431.036</ele>
        <time>2018-05-06T14:20:30.996Z</time>
      </trkpt>
      <trkpt lat="46.77232" lon="6.46162">
        <ele>1430.443</ele>
        <time>2018-05-06T14:20:31.096Z</time>
      </trkpt>
      <trkpt lat="46.77241" lon="6.46164">
        <ele>1429.645</ele>
        <time>2018-05-06T14:20:48.351Z</time>
      </trkpt>
      <trkpt lat="46.7725" lon="6.46166">
        <ele>1428.646</ele>
        <time>2018-05-06T14:21:00.207Z</time>
      </trkpt>
      <trkpt lat="46.7726" lon="6.46169">
        <ele>1426.671</ele>
        <time>2018-05-06T14:21:11.995Z</time>
      </trkpt>
      <trkpt lat="46.7726" lon="6.46169">
        <ele>1424.166</ele>
        <time>2018-05-06T14:21:13.995Z</time>
      </trkpt>
      <trkpt lat="46.7726" lon="6.46169">
        <ele>1422.481</ele>
        <time>2018-05-06T14:21:14.095Z</time>
      </trkpt>
      <trkpt lat="46.77268" lon="6.46175">
        <ele>1422.137</ele>
        <time>2018-05-06T14:21:30.968Z</time>
      </trkpt>
      <trkpt lat="46.77277" lon="6.46178">
        <ele>1422.06</ele>
        <time>2018-05-06T14:21:43.386Z</time>
      </trkpt>
      <trkpt lat="46.77284" lon="6.46188">
        <ele>1421.213</ele>
        <time>2018-05-06T14:21:55.993Z</time>
      </trkpt>
      <trkpt lat="46.77284" lon="6.46188">
        <ele>1420.005</ele>
        <time>2018-05-06T14:21:57.993Z</time>
      </trkpt>
      <trkpt lat="46.77284" lon="6.46188">
        <ele>1419.09</ele>
        <time>2018-05-06T14:21:59.202Z</time>
      </trkpt>
      <trkpt lat="46.77294" lon="6.46193">
        <ele>1418.302</ele>
        <time>2018-05-06T14:22:17.182Z</time>
      </trkpt>
      <trkpt lat="46.77303" lon="6.46198">
        <ele>1418.013</ele>
        <time>2018-05-06T14:22:27.996Z</time>
      </trkpt>
      <trkpt lat="46.77313" lon="6.462">
        <ele>1417.201</ele>
        <time>2018-05-06T14:22:39.919Z</time>
      </trkpt>
      <trkpt lat="46.77322" lon="6.46202">
        <ele>1415.769</ele>
        <time>2018-05-06T14:22:50.991Z</time>
      </trkpt>
      <trkpt lat="46.77322" lon="6.46202">
        <ele>1414.194</ele>
        <time>2018-05-06T14:23:03.991Z</time>
      </trkpt>
      <trkpt lat="46.77322" lon="6.46202">
        <ele>1413.063</ele>
        <time>2018-05-06T14:23:04.091Z</time>
      </trkpt>
      <trkpt lat="46.77332" lon="6.46213">
        <ele>1412.542</ele>
        <time>2018-05-06T14:23:31.990Z</time>
      </trkpt>
      <trkpt lat="46.77332" lon="6.46213">
        <ele>1412.178</ele>
        <time>2018-05-06T14:23:33.989Z</time>
      </trkpt>
      <trkpt lat="46.77332" lon="6.46213">
        <ele>1411.58</ele>
        <time>2018-05-06T14:24:42.196Z</time>
      </trkpt>
      <trkpt lat="46.77353" lon="6.4622">
        <ele>1410.913</ele>
        <time>2018-05-06T14:25:04.986Z</time>
      </trkpt>
      <trkpt lat="46.77353" lon="6.4622">
        <ele>1410.356</ele>
        <time>2018-05-06T14:25:13.985Z</time>
      </trkpt>
      <trkpt lat="46.77353" lon="6.4622">
        <ele>1409.727</ele>
        <time>2018-05-06T14:25:18.925Z</time>
      </trkpt>
      <trkpt lat="46.77363" lon="6.46224">
        <ele>1409.095</ele>
        <time>2018-05-06T14:25:27.985Z</time>
      </trkpt>
      <trkpt lat="46.77363" lon="6.46224">
        <ele>1408.548</ele>
        <time>2018-05-06T14:25:35.985Z</time>
      </trkpt>
      <trkpt lat="46.77363" lon="6.46224">
        <ele>1407.918</ele>
        <time>2018-05-06T14:25:53.838Z</time>
      </trkpt>
      <trkpt lat="46.77369" lon="6.46237">
        <ele>1407.286</ele>
        <time>2018-05-06T14:26:08.742Z</time>
      </trkpt>
      <trkpt lat="46.77377" lon="6.46244">
        <ele>1405.015</ele>
        <time>2018-05-06T14:26:16.654Z</time>
      </trkpt>
      <trkpt lat="46.77386" lon="6.46252">
        <ele>1399.69</ele>
        <time>2018-05-06T14:26:24.294Z</time>
      </trkpt>
      <trkpt lat="46.77395" lon="6.46257">
        <ele>1393.722</ele>
        <time>2018-05-06T14:26:32.243Z</time>
      </trkpt>
      <trkpt lat="46.77402" lon="6.46267">
        <ele>1390.057</ele>
        <time>2018-05-06T14:26:40.150Z</time>
      </trkpt>
      <trkpt lat="46.77411" lon="6.46273">
        <ele>1388.677</ele>
        <time>2018-05-06T14:26:48.982Z</time>
      </trkpt>
      <trkpt lat="46.77411" lon="6.46273">
        <ele>1388.287</ele>
        <time>2018-05-06T14:26:51.982Z</time>
      </trkpt>
      <trkpt lat="46.77411" lon="6.46273">
        <ele>1387.806</ele>
        <time>2018-05-06T14:26:52.082Z</time>
      </trkpt>
      <trkpt lat="46.7742" lon="6.46282">
        <ele>1387.196</ele>
        <time>2018-05-06T14:27:03.385Z</time>
      </trkpt>
      <trkpt lat="46.77429" lon="6.46287">
        <ele>1386.743</ele>
        <time>2018-05-06T14:27:11.168Z</time>
      </trkpt>
      <trkpt lat="46.77435" lon="6.46298">
        <ele>1386.263</ele>
        <time>2018-05-06T14:27:18.930Z</time>
      </trkpt>
      <trkpt lat="46.77442" lon="6.46306">
        <ele>1385.564</ele>
        <time>2018-05-06T14:27:26.313Z</time>
      </trkpt>
      <trkpt lat="46.77449" lon="6.46317">
        <ele>1384.83</ele>
        <time>2018-05-06T14:27:34.101Z</time>
      </trkpt>
      <trkpt lat="46.77456" lon="6.46326">
        <ele>1384.345</ele>
        <time>2018-05-06T14:27:41.121Z</time>
      </trkpt>
      <trkpt lat="46.77465" lon="6.46335">
        <ele>1384.106</ele>
        <time>2018-05-06T14:27:48.426Z</time>
      </trkpt>
      <trkpt lat="46.77472" lon="6.46344">
        <ele>1383.834</ele>
        <time>2018-05-06T14:27:56.079Z</time>
      </trkpt>
      <trkpt lat="46.77479" lon="6.46354">
        <ele>1383.224</ele>
        <time>2018-05-06T14:28:04.086Z</time>
      </trkpt>
      <trkpt lat="46.77488" lon="6.46361">
        <ele>1382.33</ele>
        <time>2018-05-06T14:28:12.919Z</time>
      </trkpt>
      <trkpt lat="46.77498" lon="6.46361">
        <ele>1381.37</ele>
        <time>2018-05-06T14:28:22.795Z</time>
      </trkpt>
      <trkpt lat="46.77507" lon="6.46363">
        <ele>1379.637</ele>
        <time>2018-05-06T14:28:31.267Z</time>
      </trkpt>
      <trkpt lat="46.77517" lon="6.46363">
        <ele>1377.752</ele>
        <time>2018-05-06T14:28:38.997Z</time>
      </trkpt>
      <trkpt lat="46.77517" lon="6.46363">
        <ele>1376.625</ele>
        <time>2018-05-06T14:28:43.997Z</time>
      </trkpt>
      <trkpt lat="46.77517" lon="6.46363">
        <ele>1375.769</ele>
        <time>2018-05-06T14:28:51.777Z</time>
      </trkpt>
      <trkpt lat="46.77517" lon="6.46363">
        <ele>1375.023</ele>
        <time>2018-05-06T14:29:15.996Z</time>
      </trkpt>
      <trkpt lat="46.77517" lon="6.46363">
        <ele>1374.771</ele>
        <time>2018-05-06T14:31:00.992Z</time>
      </trkpt>
      <trkpt lat="46.77517" lon="6.46363">
        <ele>1374.281</ele>
        <time>2018-05-06T14:32:22.989Z</time>
      </trkpt>
      <trkpt lat="46.77517" lon="6.46363">
        <ele>1373.696</ele>
        <time>2018-05-06T14:32:27.547Z</time>
      </trkpt>
      <trkpt lat="46.77507" lon="6.46365">
        <ele>1373.285</ele>
        <time>2018-05-06T14:32:48.624Z</time>
      </trkpt>
      <trkpt lat="46.77499" lon="6.46372">
        <ele>1373.09</ele>
        <time>2018-05-06T14:33:00.988Z</time>
      </trkpt>
      <trkpt lat="46.77499" lon="6.46372">
        <ele>1373.052</ele>
        <time>2018-05-06T14:33:17.987Z</time>
      </trkpt>
      <trkpt lat="46.77499" lon="6.46372">
        <ele>1372.855</ele>
        <time>2018-05-06T14:33:33.986Z</time>
      </trkpt>
      <trkpt lat="46.77499" lon="6.46372">
        <ele>1372.3</ele>
        <time>2018-05-06T14:33:58.761Z</time>
      </trkpt>
      <trkpt lat="46.77506" lon="6.46382">
        <ele>1371.314</ele>
        <time>2018-05-06T14:34:13.547Z</time>
      </trkpt>
      <trkpt lat="46.77511" lon="6.46392">
        <ele>1372.183</ele>
        <time>2018-05-06T14:34:24.365Z</time>
      </trkpt>
      <trkpt lat="46.77517" lon="6.46404">
        <ele>1377.396</ele>
        <time>2018-05-06T14:34:37.996Z</time>
      </trkpt>
      <trkpt lat="46.77517" lon="6.46404">
        <ele>1378.183</ele>
        <time>2018-05-06T14:34:50.998Z</time>
      </trkpt>
      <trkpt lat="46.77517" lon="6.46404">
        <ele>1377.533</ele>
        <time>2018-05-06T14:34:51.098Z</time>
      </trkpt>
      <trkpt lat="46.77525" lon="6.46417">
        <ele>1376.74</ele>
        <time>2018-05-06T14:35:04.998Z</time>
      </trkpt>
      <trkpt lat="46.77525" lon="6.46417">
        <ele>1376.438</ele>
        <time>2018-05-06T14:35:15.998Z</time>
      </trkpt>
      <trkpt lat="46.77525" lon="6.46417">
        <ele>1376.238</ele>
        <time>2018-05-06T14:35:16.098Z</time>
      </trkpt>
      <trkpt lat="46.77529" lon="6.46432">
        <ele>1375.804</ele>
        <time>2018-05-06T14:35:36.580Z</time>
      </trkpt>
      <trkpt lat="46.77535" lon="6.46443">
        <ele>1375.668</ele>
        <time>2018-05-06T14:35:50.270Z</time>
      </trkpt>
      <trkpt lat="46.77541" lon="6.46453">
        <ele>1376.364</ele>
        <time>2018-05-06T14:36:06.353Z</time>
      </trkpt>
      <trkpt lat="46.77548" lon="6.46463">
        <ele>1377.909</ele>
        <time>2018-05-06T14:36:23.144Z</time>
      </trkpt>
      <trkpt lat="46.77554" lon="6.46473">
        <ele>1377.858</ele>
        <time>2018-05-06T14:36:34.966Z</time>
      </trkpt>
      <trkpt lat="46.77561" lon="6.46482">
        <ele>1377.213</ele>
        <time>2018-05-06T14:36:45.123Z</time>
      </trkpt>
      <trkpt lat="46.77569" lon="6.46492">
        <ele>1376.898</ele>
        <time>2018-05-06T14:36:54.994Z</time>
      </trkpt>
      <trkpt lat="46.77569" lon="6.46492">
        <ele>1376.592</ele>
        <time>2018-05-06T14:37:01.994Z</time>
      </trkpt>
      <trkpt lat="46.77569" lon="6.46492">
        <ele>1376.249</ele>
        <time>2018-05-06T14:37:47.482Z</time>
      </trkpt>
      <trkpt lat="46.77581" lon="6.46519">
        <ele>1375.802</ele>
        <time>2018-05-06T14:38:14.706Z</time>
      </trkpt>
      <trkpt lat="46.77587" lon="6.4653">
        <ele>1375.652</ele>
        <time>2018-05-06T14:38:20.991Z</time>
      </trkpt>
      <trkpt lat="46.77587" lon="6.4653">
        <ele>1376.108</ele>
        <time>2018-05-06T14:38:27.990Z</time>
      </trkpt>
      <trkpt lat="46.77587" lon="6.4653">
        <ele>1376.384</ele>
        <time>2018-05-06T14:38:39.293Z</time>
      </trkpt>
      <trkpt lat="46.77592" lon="6.46542">
        <ele>1374.968</ele>
        <time>2018-05-06T14:38:49.989Z</time>
      </trkpt>
      <trkpt lat="46.77592" lon="6.46542">
        <ele>1374.49</ele>
        <time>2018-05-06T14:38:59.989Z</time>
      </trkpt>
      <trkpt lat="46.77592" lon="6.46542">
        <ele>1374.214</ele>
        <time>2018-05-06T14:39:00.089Z</time>
      </trkpt>
      <trkpt lat="46.77601" lon="6.46558">
        <ele>1373.852</ele>
        <time>2018-05-06T14:39:23.604Z</time>
      </trkpt>
      <trkpt lat="46.77606" lon="6.46569">
        <ele>1373.802</ele>
        <time>2018-05-06T14:39:35.227Z</time>
      </trkpt>
      <trkpt lat="46.77612" lon="6.46579">
        <ele>1374.427</ele>
        <time>2018-05-06T14:39:44.723Z</time>
      </trkpt>
      <trkpt lat="46.77618" lon="6.46589">
        <ele>1375.141</ele>
        <time>2018-05-06T14:39:53.708Z</time>
      </trkpt>
      <trkpt lat="46.77625" lon="6.46599">
        <ele>1375.344</ele>
        <time>2018-05-06T14:40:02.271Z</time>
      </trkpt>
      <trkpt lat="46.77633" lon="6.46607">
        <ele>1375.11</ele>
        <time>2018-05-06T14:40:10.549Z</time>
      </trkpt>
      <trkpt lat="46.77639" lon="6.46617">
        <ele>1374.667</ele>
        <time>2018-05-06T14:40:18.784Z</time>
      </trkpt>
      <trkpt lat="46.77644" lon="6.46628">
        <ele>1374.209</ele>
        <time>2018-05-06T14:40:26.985Z</time>
      </trkpt>
      <trkpt lat="46.77644" lon="6.46628">
        <ele>1373.862</ele>
        <time>2018-05-06T14:40:27.985Z</time>
      </trkpt>
      <trkpt lat="46.77644" lon="6.46628">
        <ele>1373.507</ele>
        <time>2018-05-06T14:40:39.254Z</time>
      </trkpt>
      <trkpt lat="46.77651" lon="6.46637">
        <ele>1372.529</ele>
        <time>2018-05-06T14:40:54.713Z</time>
      </trkpt>
      <trkpt lat="46.77658" lon="6.46647">
        <ele>1372.26</ele>
        <time>2018-05-06T14:41:04.454Z</time>
      </trkpt>
      <trkpt lat="46.77666" lon="6.46658">
        <ele>1372.191</ele>
        <time>2018-05-06T14:41:14.077Z</time>
      </trkpt>
      <trkpt lat="46.77673" lon="6.46668">
        <ele>1372.156</ele>
        <time>2018-05-06T14:41:23.281Z</time>
      </trkpt>
      <trkpt lat="46.77679" lon="6.46677">
        <ele>1371.943</ele>
        <time>2018-05-06T14:41:32.011Z</time>
      </trkpt>
      <trkpt lat="46.77685" lon="6.46687">
        <ele>1371.479</ele>
        <time>2018-05-06T14:41:40.091Z</time>
      </trkpt>
      <trkpt lat="46.77692" lon="6.46697">
        <ele>1370.882</ele>
        <time>2018-05-06T14:41:47.996Z</time>
      </trkpt>
      <trkpt lat="46.77692" lon="6.46697">
        <ele>1370.258</ele>
        <time>2018-05-06T14:41:56.997Z</time>
      </trkpt>
      <trkpt lat="46.77692" lon="6.46697">
        <ele>1369.698</ele>
        <time>2018-05-06T14:46:17.547Z</time>
      </trkpt>
      <trkpt lat="46.77701" lon="6.46704">
        <ele>1369.256</ele>
        <time>2018-05-06T14:46:27.988Z</time>
      </trkpt>
      <trkpt lat="46.77701" lon="6.46704">
        <ele>1368.771</ele>
        <time>2018-05-06T14:46:31.988Z</time>
      </trkpt>
      <trkpt lat="46.77701" lon="6.46704">
        <ele>1368.168</ele>
        <time>2018-05-06T14:46:34.774Z</time>
      </trkpt>
      <trkpt lat="46.77707" lon="6.46715">
        <ele>1367.629</ele>
        <time>2018-05-06T14:46:45.434Z</time>
      </trkpt>
      <trkpt lat="46.77714" lon="6.46724">
        <ele>1367.251</ele>
        <time>2018-05-06T14:46:52.987Z</time>
      </trkpt>
      <trkpt lat="46.77714" lon="6.46724">
        <ele>1366.902</ele>
        <time>2018-05-06T14:47:01.986Z</time>
      </trkpt>
      <trkpt lat="46.77714" lon="6.46724">
        <ele>1366.45</ele>
        <time>2018-05-06T14:47:03.213Z</time>
      </trkpt>
      <trkpt lat="46.77727" lon="6.46736">
        <ele>1365.935</ele>
        <time>2018-05-06T14:47:19.360Z</time>
      </trkpt>
      <trkpt lat="46.77735" lon="6.46745">
        <ele>1365.521</ele>
        <time>2018-05-06T14:47:26.309Z</time>
      </trkpt>
      <trkpt lat="46.77743" lon="6.46753">
        <ele>1365.209</ele>
        <time>2018-05-06T14:47:32.617Z</time>
      </trkpt>
      <trkpt lat="46.77751" lon="6.46762">
        <ele>1364.862</ele>
        <time>2018-05-06T14:47:39.195Z</time>
      </trkpt>
      <trkpt lat="46.7776" lon="6.4677">
        <ele>1364.391</ele>
        <time>2018-05-06T14:47:45.370Z</time>
      </trkpt>
      <trkpt lat="46.77768" lon="6.46778">
        <ele>1363.827</ele>
        <time>2018-05-06T14:47:52.180Z</time>
      </trkpt>
      <trkpt lat="46.77788" lon="6.46799">
        <ele>1363.241</ele>
        <time>2018-05-06T14:48:07.838Z</time>
      </trkpt>
      <trkpt lat="46.77796" lon="6.46809">
        <ele>1362.514</ele>
        <time>2018-05-06T14:48:14.099Z</time>
      </trkpt>
      <trkpt lat="46.77804" lon="6.46814">
        <ele>1361.417</ele>
        <time>2018-05-06T14:48:19.099Z</time>
      </trkpt>
      <trkpt lat="46.77813" lon="6.46819">
        <ele>1359.298</ele>
        <time>2018-05-06T14:48:24.269Z</time>
      </trkpt>
      <trkpt lat="46.77822" lon="6.46825">
        <ele>1358.604</ele>
        <time>2018-05-06T14:48:30.001Z</time>
      </trkpt>
      <trkpt lat="46.77831" lon="6.46833">
        <ele>1357.819</ele>
        <time>2018-05-06T14:48:35.761Z</time>
      </trkpt>
      <trkpt lat="46.77839" lon="6.46839">
        <ele>1356.925</ele>
        <time>2018-05-06T14:48:40.941Z</time>
      </trkpt>
      <trkpt lat="46.77849" lon="6.46843">
        <ele>1355.518</ele>
        <time>2018-05-06T14:48:46.953Z</time>
      </trkpt>
      <trkpt lat="46.77857" lon="6.46849">
        <ele>1355.292</ele>
        <time>2018-05-06T14:48:52.680Z</time>
      </trkpt>
      <trkpt lat="46.77865" lon="6.46857">
        <ele>1355.141</ele>
        <time>2018-05-06T14:48:58.747Z</time>
      </trkpt>
      <trkpt lat="46.77873" lon="6.46864">
        <ele>1354.781</ele>
        <time>2018-05-06T14:49:04.590Z</time>
      </trkpt>
      <trkpt lat="46.77881" lon="6.46871">
        <ele>1354.242</ele>
        <time>2018-05-06T14:49:10.682Z</time>
      </trkpt>
      <trkpt lat="46.77888" lon="6.46879">
        <ele>1353.719</ele>
        <time>2018-05-06T14:49:16.383Z</time>
      </trkpt>
      <trkpt lat="46.77897" lon="6.46886">
        <ele>1353.371</ele>
        <time>2018-05-06T14:49:22.599Z</time>
      </trkpt>
      <trkpt lat="46.77905" lon="6.46895">
        <ele>1353.245</ele>
        <time>2018-05-06T14:49:28.460Z</time>
      </trkpt>
      <trkpt lat="46.77914" lon="6.469">
        <ele>1353.31</ele>
        <time>2018-05-06T14:49:34.759Z</time>
      </trkpt>
      <trkpt lat="46.77923" lon="6.46907">
        <ele>1353.503</ele>
        <time>2018-05-06T14:49:41.336Z</time>
      </trkpt>
      <trkpt lat="46.77931" lon="6.46914">
        <ele>1353.685</ele>
        <time>2018-05-06T14:49:47.438Z</time>
      </trkpt>
      <trkpt lat="46.77939" lon="6.46921">
        <ele>1353.753</ele>
        <time>2018-05-06T14:49:53.504Z</time>
      </trkpt>
      <trkpt lat="46.77946" lon="6.46931">
        <ele>1353.679</ele>
        <time>2018-05-06T14:50:00.174Z</time>
      </trkpt>
      <trkpt lat="46.77954" lon="6.46938">
        <ele>1353.48</ele>
        <time>2018-05-06T14:50:06.240Z</time>
      </trkpt>
      <trkpt lat="46.77963" lon="6.46945">
        <ele>1353.25</ele>
        <time>2018-05-06T14:50:12.421Z</time>
      </trkpt>
      <trkpt lat="46.77971" lon="6.46953">
        <ele>1353.046</ele>
        <time>2018-05-06T14:50:18.207Z</time>
      </trkpt>
      <trkpt lat="46.77979" lon="6.46959">
        <ele>1352.854</ele>
        <time>2018-05-06T14:50:24.499Z</time>
      </trkpt>
      <trkpt lat="46.77989" lon="6.46957">
        <ele>1352.693</ele>
        <time>2018-05-06T14:50:31.021Z</time>
      </trkpt>
      <trkpt lat="46.77998" lon="6.46952">
        <ele>1352.601</ele>
        <time>2018-05-06T14:50:37.783Z</time>
      </trkpt>
      <trkpt lat="46.78007" lon="6.46946">
        <ele>1352.594</ele>
        <time>2018-05-06T14:50:44.902Z</time>
      </trkpt>
      <trkpt lat="46.78015" lon="6.46941">
        <ele>1352.309</ele>
        <time>2018-05-06T14:50:52.179Z</time>
      </trkpt>
      <trkpt lat="46.78024" lon="6.46941">
        <ele>1352.769</ele>
        <time>2018-05-06T14:50:59.662Z</time>
      </trkpt>
      <trkpt lat="46.78032" lon="6.46948">
        <ele>1354.47</ele>
        <time>2018-05-06T14:51:06.406Z</time>
      </trkpt>
      <trkpt lat="46.7804" lon="6.46956">
        <ele>1355.256</ele>
        <time>2018-05-06T14:51:13.161Z</time>
      </trkpt>
      <trkpt lat="46.78047" lon="6.46964">
        <ele>1356.107</ele>
        <time>2018-05-06T14:51:19.857Z</time>
      </trkpt>
      <trkpt lat="46.78054" lon="6.46972">
        <ele>1356.81</ele>
        <time>2018-05-06T14:51:26.666Z</time>
      </trkpt>
      <trkpt lat="46.78062" lon="6.4698">
        <ele>1357.325</ele>
        <time>2018-05-06T14:51:33.710Z</time>
      </trkpt>
      <trkpt lat="46.7807" lon="6.46988">
        <ele>1357.736</ele>
        <time>2018-05-06T14:51:40.654Z</time>
      </trkpt>
      <trkpt lat="46.78078" lon="6.46995">
        <ele>1358.053</ele>
        <time>2018-05-06T14:51:47.619Z</time>
      </trkpt>
      <trkpt lat="46.78086" lon="6.47004">
        <ele>1358.267</ele>
        <time>2018-05-06T14:51:54.708Z</time>
      </trkpt>
      <trkpt lat="46.78094" lon="6.47013">
        <ele>1358.419</ele>
        <time>2018-05-06T14:52:02.554Z</time>
      </trkpt>
      <trkpt lat="46.78099" lon="6.47024">
        <ele>1358.645</ele>
        <time>2018-05-06T14:52:10.015Z</time>
      </trkpt>
      <trkpt lat="46.78107" lon="6.47031">
        <ele>1358.999</ele>
        <time>2018-05-06T14:52:16.777Z</time>
      </trkpt>
      <trkpt lat="46.78116" lon="6.47039">
        <ele>1359.349</ele>
        <time>2018-05-06T14:52:23.876Z</time>
      </trkpt>
      <trkpt lat="46.78124" lon="6.47046">
        <ele>1359.552</ele>
        <time>2018-05-06T14:52:30.598Z</time>
      </trkpt>
      <trkpt lat="46.78131" lon="6.47054">
        <ele>1359.658</ele>
        <time>2018-05-06T14:52:37.583Z</time>
      </trkpt>
      <trkpt lat="46.78138" lon="6.47064">
        <ele>1359.783</ele>
        <time>2018-05-06T14:52:45.706Z</time>
      </trkpt>
      <trkpt lat="46.78145" lon="6.47074">
        <ele>1360.027</ele>
        <time>2018-05-06T14:52:53.342Z</time>
      </trkpt>
      <trkpt lat="46.78151" lon="6.47083">
        <ele>1360.52</ele>
        <time>2018-05-06T14:53:00.253Z</time>
      </trkpt>
      <trkpt lat="46.78159" lon="6.4709">
        <ele>1361.163</ele>
        <time>2018-05-06T14:53:06.562Z</time>
      </trkpt>
      <trkpt lat="46.78168" lon="6.47094">
        <ele>1361.563</ele>
        <time>2018-05-06T14:53:12.825Z</time>
      </trkpt>
      <trkpt lat="46.78177" lon="6.47101">
        <ele>1361.561</ele>
        <time>2018-05-06T14:53:19.402Z</time>
      </trkpt>
      <trkpt lat="46.78185" lon="6.47108">
        <ele>1361.459</ele>
        <time>2018-05-06T14:53:26.357Z</time>
      </trkpt>
      <trkpt lat="46.78195" lon="6.47113">
        <ele>1361.573</ele>
        <time>2018-05-06T14:53:33.298Z</time>
      </trkpt>
      <trkpt lat="46.78204" lon="6.47118">
        <ele>1361.918</ele>
        <time>2018-05-06T14:53:40.156Z</time>
      </trkpt>
      <trkpt lat="46.78213" lon="6.47124">
        <ele>1362.319</ele>
        <time>2018-05-06T14:53:46.338Z</time>
      </trkpt>
      <trkpt lat="46.78222" lon="6.47128">
        <ele>1362.451</ele>
        <time>2018-05-06T14:53:52.364Z</time>
      </trkpt>
      <trkpt lat="46.7823" lon="6.47132">
        <ele>1361.543</ele>
        <time>2018-05-06T14:53:58.287Z</time>
      </trkpt>
      <trkpt lat="46.78239" lon="6.47137">
        <ele>1360.986</ele>
        <time>2018-05-06T14:54:04.195Z</time>
      </trkpt>
      <trkpt lat="46.78248" lon="6.47143">
        <ele>1359.991</ele>
        <time>2018-05-06T14:54:10.186Z</time>
      </trkpt>
      <trkpt lat="46.78256" lon="6.47151">
        <ele>1359.471</ele>
        <time>2018-05-06T14:54:16.234Z</time>
      </trkpt>
      <trkpt lat="46.78264" lon="6.4716">
        <ele>1358.792</ele>
        <time>2018-05-06T14:54:22.221Z</time>
      </trkpt>
      <trkpt lat="46.78271" lon="6.47171">
        <ele>1357.331</ele>
        <time>2018-05-06T14:54:28.345Z</time>
      </trkpt>
      <trkpt lat="46.78278" lon="6.4718">
        <ele>1356.58</ele>
        <time>2018-05-06T14:54:33.947Z</time>
      </trkpt>
      <trkpt lat="46.78284" lon="6.4719">
        <ele>1355.695</ele>
        <time>2018-05-06T14:54:39.838Z</time>
      </trkpt>
      <trkpt lat="46.78292" lon="6.47198">
        <ele>1354.224</ele>
        <time>2018-05-06T14:54:45.824Z</time>
      </trkpt>
      <trkpt lat="46.78297" lon="6.47209">
        <ele>1353.588</ele>
        <time>2018-05-06T14:54:51.965Z</time>
      </trkpt>
      <trkpt lat="46.78302" lon="6.47223">
        <ele>1352.865</ele>
        <time>2018-05-06T14:54:58.716Z</time>
      </trkpt>
      <trkpt lat="46.78307" lon="6.47234">
        <ele>1352.104</ele>
        <time>2018-05-06T14:55:04.616Z</time>
      </trkpt>
      <trkpt lat="46.78312" lon="6.47247">
        <ele>1351.258</ele>
        <time>2018-05-06T14:55:11.074Z</time>
      </trkpt>
      <trkpt lat="46.78319" lon="6.47259">
        <ele>1350.131</ele>
        <time>2018-05-06T14:55:17.710Z</time>
      </trkpt>
      <trkpt lat="46.78325" lon="6.47268">
        <ele>1348.73</ele>
        <time>2018-05-06T14:55:23.553Z</time>
      </trkpt>
      <trkpt lat="46.78332" lon="6.47277">
        <ele>1347.373</ele>
        <time>2018-05-06T14:55:29.762Z</time>
      </trkpt>
      <trkpt lat="46.7834" lon="6.47287">
        <ele>1346.335</ele>
        <time>2018-05-06T14:55:36.411Z</time>
      </trkpt>
      <trkpt lat="46.78347" lon="6.47295">
        <ele>1345.55</ele>
        <time>2018-05-06T14:55:42.470Z</time>
      </trkpt>
      <trkpt lat="46.78356" lon="6.47304">
        <ele>1344.689</ele>
        <time>2018-05-06T14:55:49.653Z</time>
      </trkpt>
      <trkpt lat="46.7836" lon="6.47316">
        <ele>1343.644</ele>
        <time>2018-05-06T14:55:56.495Z</time>
      </trkpt>
      <trkpt lat="46.78367" lon="6.47326">
        <ele>1342.643</ele>
        <time>2018-05-06T14:56:04.135Z</time>
      </trkpt>
      <trkpt lat="46.78372" lon="6.4734">
        <ele>1341.7</ele>
        <time>2018-05-06T14:56:11.559Z</time>
      </trkpt>
      <trkpt lat="46.78379" lon="6.47349">
        <ele>1340.551</ele>
        <time>2018-05-06T14:56:18.255Z</time>
      </trkpt>
      <trkpt lat="46.78388" lon="6.47357">
        <ele>1339.186</ele>
        <time>2018-05-06T14:56:25.251Z</time>
      </trkpt>
      <trkpt lat="46.78395" lon="6.47364">
        <ele>1337.736</ele>
        <time>2018-05-06T14:56:31.473Z</time>
      </trkpt>
      <trkpt lat="46.78403" lon="6.47373">
        <ele>1336.343</ele>
        <time>2018-05-06T14:56:38.781Z</time>
      </trkpt>
      <trkpt lat="46.7841" lon="6.47383">
        <ele>1335.291</ele>
        <time>2018-05-06T14:56:45.160Z</time>
      </trkpt>
      <trkpt lat="46.78417" lon="6.47394">
        <ele>1334.715</ele>
        <time>2018-05-06T14:56:52.115Z</time>
      </trkpt>
      <trkpt lat="46.78424" lon="6.47402">
        <ele>1333.978</ele>
        <time>2018-05-06T14:56:58.301Z</time>
      </trkpt>
      <trkpt lat="46.78431" lon="6.47412">
        <ele>1333.472</ele>
        <time>2018-05-06T14:57:04.497Z</time>
      </trkpt>
      <trkpt lat="46.78438" lon="6.47422">
        <ele>1332.344</ele>
        <time>2018-05-06T14:57:10.758Z</time>
      </trkpt>
      <trkpt lat="46.78445" lon="6.4743">
        <ele>1331.773</ele>
        <time>2018-05-06T14:57:16.991Z</time>
      </trkpt>
      <trkpt lat="46.78451" lon="6.47441">
        <ele>1331.093</ele>
        <time>2018-05-06T14:57:23.239Z</time>
      </trkpt>
      <trkpt lat="46.78457" lon="6.47452">
        <ele>1330.162</ele>
        <time>2018-05-06T14:57:29.824Z</time>
      </trkpt>
      <trkpt lat="46.78463" lon="6.47464">
        <ele>1328.963</ele>
        <time>2018-05-06T14:57:36.866Z</time>
      </trkpt>
      <trkpt lat="46.78469" lon="6.47476">
        <ele>1327.601</ele>
        <time>2018-05-06T14:57:44.417Z</time>
      </trkpt>
      <trkpt lat="46.78474" lon="6.47488">
        <ele>1326.223</ele>
        <time>2018-05-06T14:57:53.048Z</time>
      </trkpt>
      <trkpt lat="46.78477" lon="6.475">
        <ele>1324.826</ele>
        <time>2018-05-06T14:58:02.720Z</time>
      </trkpt>
      <trkpt lat="46.78478" lon="6.47513">
        <ele>1323.434</ele>
        <time>2018-05-06T14:58:10.734Z</time>
      </trkpt>
      <trkpt lat="46.7848" lon="6.47529">
        <ele>1322.168</ele>
        <time>2018-05-06T14:58:17.978Z</time>
      </trkpt>
      <trkpt lat="46.78483" lon="6.47543">
        <ele>1320.985</ele>
        <time>2018-05-06T14:58:24.253Z</time>
      </trkpt>
      <trkpt lat="46.78483" lon="6.47558">
        <ele>1319.063</ele>
        <time>2018-05-06T14:58:30.817Z</time>
      </trkpt>
      <trkpt lat="46.78482" lon="6.47572">
        <ele>1318.138</ele>
        <time>2018-05-06T14:58:36.788Z</time>
      </trkpt>
      <trkpt lat="46.78482" lon="6.47585">
        <ele>1316.224</ele>
        <time>2018-05-06T14:58:42.694Z</time>
      </trkpt>
      <trkpt lat="46.78482" lon="6.476">
        <ele>1315.526</ele>
        <time>2018-05-06T14:58:49.566Z</time>
      </trkpt>
      <trkpt lat="46.78483" lon="6.47614">
        <ele>1314.749</ele>
        <time>2018-05-06T14:58:56.296Z</time>
      </trkpt>
      <trkpt lat="46.78483" lon="6.47627">
        <ele>1313.874</ele>
        <time>2018-05-06T14:59:02.485Z</time>
      </trkpt>
      <trkpt lat="46.78489" lon="6.47637">
        <ele>1313.063</ele>
        <time>2018-05-06T14:59:08.802Z</time>
      </trkpt>
      <trkpt lat="46.78496" lon="6.47647">
        <ele>1311.916</ele>
        <time>2018-05-06T14:59:15.049Z</time>
      </trkpt>
      <trkpt lat="46.78501" lon="6.4766">
        <ele>1311.443</ele>
        <time>2018-05-06T14:59:21.795Z</time>
      </trkpt>
      <trkpt lat="46.78507" lon="6.47672">
        <ele>1310.364</ele>
        <time>2018-05-06T14:59:28.240Z</time>
      </trkpt>
      <trkpt lat="46.78513" lon="6.47684">
        <ele>1309.502</ele>
        <time>2018-05-06T14:59:35.455Z</time>
      </trkpt>
      <trkpt lat="46.78519" lon="6.47695">
        <ele>1309.044</ele>
        <time>2018-05-06T14:59:42.465Z</time>
      </trkpt>
      <trkpt lat="46.78526" lon="6.47706">
        <ele>1308.501</ele>
        <time>2018-05-06T14:59:49.306Z</time>
      </trkpt>
      <trkpt lat="46.78532" lon="6.47717">
        <ele>1307.788</ele>
        <time>2018-05-06T14:59:55.422Z</time>
      </trkpt>
      <trkpt lat="46.78538" lon="6.47727">
        <ele>1306.986</ele>
        <time>2018-05-06T15:00:01.393Z</time>
      </trkpt>
      <trkpt lat="46.78544" lon="6.47738">
        <ele>1306.274</ele>
        <time>2018-05-06T15:00:08.131Z</time>
      </trkpt>
      <trkpt lat="46.7855" lon="6.4775">
        <ele>1305.626</ele>
        <time>2018-05-06T15:00:14.524Z</time>
      </trkpt>
      <trkpt lat="46.78554" lon="6.47764">
        <ele>1304.495</ele>
        <time>2018-05-06T15:00:21.228Z</time>
      </trkpt>
      <trkpt lat="46.78557" lon="6.47777">
        <ele>1304.054</ele>
        <time>2018-05-06T15:00:27.845Z</time>
      </trkpt>
      <trkpt lat="46.78562" lon="6.4779">
        <ele>1303.454</ele>
        <time>2018-05-06T15:00:34.913Z</time>
      </trkpt>
      <trkpt lat="46.78566" lon="6.47803">
        <ele>1302.753</ele>
        <time>2018-05-06T15:00:41.704Z</time>
      </trkpt>
      <trkpt lat="46.78571" lon="6.47815">
        <ele>1301.551</ele>
        <time>2018-05-06T15:00:48.086Z</time>
      </trkpt>
      <trkpt lat="46.78574" lon="6.47827">
        <ele>1301.078</ele>
        <time>2018-05-06T15:00:54.012Z</time>
      </trkpt>
      <trkpt lat="46.78579" lon="6.47839">
        <ele>1300.536</ele>
        <time>2018-05-06T15:01:00.065Z</time>
      </trkpt>
      <trkpt lat="46.78582" lon="6.47852">
        <ele>1299.938</ele>
        <time>2018-05-06T15:01:06.004Z</time>
      </trkpt>
      <trkpt lat="46.78586" lon="6.47864">
        <ele>1299.37</ele>
        <time>2018-05-06T15:01:11.912Z</time>
      </trkpt>
      <trkpt lat="46.78592" lon="6.47876">
        <ele>1298.789</ele>
        <time>2018-05-06T15:01:18.499Z</time>
      </trkpt>
      <trkpt lat="46.78597" lon="6.47887">
        <ele>1298.146</ele>
        <time>2018-05-06T15:01:24.784Z</time>
      </trkpt>
      <trkpt lat="46.78604" lon="6.47898">
        <ele>1297.403</ele>
        <time>2018-05-06T15:01:31.659Z</time>
      </trkpt>
      <trkpt lat="46.7861" lon="6.47911">
        <ele>1296.603</ele>
        <time>2018-05-06T15:01:38.584Z</time>
      </trkpt>
      <trkpt lat="46.78614" lon="6.47923">
        <ele>1295.799</ele>
        <time>2018-05-06T15:01:44.709Z</time>
      </trkpt>
      <trkpt lat="46.78618" lon="6.47935">
        <ele>1294.976</ele>
        <time>2018-05-06T15:01:50.721Z</time>
      </trkpt>
      <trkpt lat="46.78623" lon="6.47947">
        <ele>1294.225</ele>
        <time>2018-05-06T15:01:56.655Z</time>
      </trkpt>
      <trkpt lat="46.78628" lon="6.47958">
        <ele>1293.622</ele>
        <time>2018-05-06T15:02:02.543Z</time>
      </trkpt>
      <trkpt lat="46.78634" lon="6.4797">
        <ele>1292.955</ele>
        <time>2018-05-06T15:02:08.896Z</time>
      </trkpt>
      <trkpt lat="46.78639" lon="6.47981">
        <ele>1292.098</ele>
        <time>2018-05-06T15:02:14.670Z</time>
      </trkpt>
      <trkpt lat="46.78646" lon="6.47992">
        <ele>1291.2</ele>
        <time>2018-05-06T15:02:20.646Z</time>
      </trkpt>
      <trkpt lat="46.78651" lon="6.48003">
        <ele>1290.418</ele>
        <time>2018-05-06T15:02:26.532Z</time>
      </trkpt>
      <trkpt lat="46.78655" lon="6.48016">
        <ele>1289.761</ele>
        <time>2018-05-06T15:02:32.702Z</time>
      </trkpt>
      <trkpt lat="46.78661" lon="6.48028">
        <ele>1289.101</ele>
        <time>2018-05-06T15:02:39.153Z</time>
      </trkpt>
      <trkpt lat="46.78665" lon="6.4804">
        <ele>1288.299</ele>
        <time>2018-05-06T15:02:45.611Z</time>
      </trkpt>
      <trkpt lat="46.7867" lon="6.48054">
        <ele>1287.484</ele>
        <time>2018-05-06T15:02:52.943Z</time>
      </trkpt>
      <trkpt lat="46.78677" lon="6.48061">
        <ele>1286.827</ele>
        <time>2018-05-06T15:02:59.310Z</time>
      </trkpt>
      <trkpt lat="46.78686" lon="6.4807">
        <ele>1286.293</ele>
        <time>2018-05-06T15:03:06.223Z</time>
      </trkpt>
      <trkpt lat="46.78692" lon="6.48081">
        <ele>1285.796</ele>
        <time>2018-05-06T15:03:13.049Z</time>
      </trkpt>
      <trkpt lat="46.78699" lon="6.4809">
        <ele>1285.306</ele>
        <time>2018-05-06T15:03:19.148Z</time>
      </trkpt>
      <trkpt lat="46.78705" lon="6.481">
        <ele>1284.725</ele>
        <time>2018-05-06T15:03:25.180Z</time>
      </trkpt>
      <trkpt lat="46.78711" lon="6.48111">
        <ele>1284.017</ele>
        <time>2018-05-06T15:03:31.818Z</time>
      </trkpt>
      <trkpt lat="46.78719" lon="6.48122">
        <ele>1283.286</ele>
        <time>2018-05-06T15:03:38.844Z</time>
      </trkpt>
      <trkpt lat="46.78726" lon="6.48132">
        <ele>1282.552</ele>
        <time>2018-05-06T15:03:45.812Z</time>
      </trkpt>
      <trkpt lat="46.78733" lon="6.4814">
        <ele>1281.785</ele>
        <time>2018-05-06T15:03:52.171Z</time>
      </trkpt>
      <trkpt lat="46.78742" lon="6.48149">
        <ele>1281.088</ele>
        <time>2018-05-06T15:03:59.649Z</time>
      </trkpt>
      <trkpt lat="46.78749" lon="6.48158">
        <ele>1280.474</ele>
        <time>2018-05-06T15:04:06.676Z</time>
      </trkpt>
      <trkpt lat="46.78757" lon="6.48169">
        <ele>1279.205</ele>
        <time>2018-05-06T15:04:13.733Z</time>
      </trkpt>
      <trkpt lat="46.78765" lon="6.48175">
        <ele>1278.674</ele>
        <time>2018-05-06T15:04:19.950Z</time>
      </trkpt>
      <trkpt lat="46.78774" lon="6.48181">
        <ele>1277.868</ele>
        <time>2018-05-06T15:04:26.563Z</time>
      </trkpt>
      <trkpt lat="46.78781" lon="6.48189">
        <ele>1277.488</ele>
        <time>2018-05-06T15:04:33.191Z</time>
      </trkpt>
      <trkpt lat="46.78789" lon="6.48196">
        <ele>1276.882</ele>
        <time>2018-05-06T15:04:40.094Z</time>
      </trkpt>
      <trkpt lat="46.78798" lon="6.48202">
        <ele>1276.499</ele>
        <time>2018-05-06T15:04:46.996Z</time>
      </trkpt>
      <trkpt lat="46.78798" lon="6.48202">
        <ele>1276.023</ele>
        <time>2018-05-06T15:04:50.996Z</time>
      </trkpt>
    </trkseg>
  </trk>
</gpx>